<?xml version="1.0" encoding="UTF-8" standalone="yes"?>
<gpx xmlns="http://www.topografix.com/GPX/1/1" xmlns:xsi="http://www.w3.org/2001/XMLSchema-instance" version="1.1" creator="MagicMaps Tour Explorer" xsi:schemaLocation="http://www.topografix.com/GPX/1/1 http://www.topografix.com/GPX/1/1/gpx.xsd">
  <trk>
    <name>hoerndlwand_s</name>
    <trkseg>
      <trkpt lat="47.711382784" lon="12.622193476">
        <ele>744.5</ele>
        <time>2020-11-15T07:03:44Z</time>
      </trkpt>
      <trkpt lat="47.711449846" lon="12.622064789">
        <ele>745.3</ele>
        <time>2020-11-15T07:04:18Z</time>
      </trkpt>
      <trkpt lat="47.711472010" lon="12.621932988">
        <ele>745.9</ele>
        <time>2020-11-15T07:04:32Z</time>
      </trkpt>
      <trkpt lat="47.711390611" lon="12.621801803">
        <ele>756.2</ele>
        <time>2020-11-15T07:04:36Z</time>
      </trkpt>
      <trkpt lat="47.711390778" lon="12.621772047">
        <ele>756.2</ele>
        <time>2020-11-15T07:04:38Z</time>
      </trkpt>
      <trkpt lat="47.711434951" lon="12.621505922">
        <ele>757.7</ele>
        <time>2020-11-15T07:04:57Z</time>
      </trkpt>
      <trkpt lat="47.711479040" lon="12.621390587">
        <ele>758.6</ele>
        <time>2020-11-15T07:05:08Z</time>
      </trkpt>
      <trkpt lat="47.711506868" lon="12.621230157">
        <ele>760.1</ele>
        <time>2020-11-15T07:05:21Z</time>
      </trkpt>
      <trkpt lat="47.711574426" lon="12.621204341">
        <ele>760.1</ele>
        <time>2020-11-15T07:05:40Z</time>
      </trkpt>
      <trkpt lat="47.711810544" lon="12.621207861">
        <ele>761.5</ele>
        <time>2020-11-15T07:06:03Z</time>
      </trkpt>
      <trkpt lat="47.712104749" lon="12.621380193">
        <ele>763.4</ele>
        <time>2020-11-15T07:06:33Z</time>
      </trkpt>
      <trkpt lat="47.712276997" lon="12.621529810">
        <ele>765.8</ele>
        <time>2020-11-15T07:06:55Z</time>
      </trkpt>
      <trkpt lat="47.712544212" lon="12.621686049">
        <ele>771.1</ele>
        <time>2020-11-15T07:07:30Z</time>
      </trkpt>
      <trkpt lat="47.712718891" lon="12.621649252">
        <ele>773.0</ele>
        <time>2020-11-15T07:07:49Z</time>
      </trkpt>
      <trkpt lat="47.712788628" lon="12.621494355">
        <ele>775.9</ele>
        <time>2020-11-15T07:08:05Z</time>
      </trkpt>
      <trkpt lat="47.712808158" lon="12.621343983">
        <ele>777.4</ele>
        <time>2020-11-15T07:08:18Z</time>
      </trkpt>
      <trkpt lat="47.712827940" lon="12.620618865">
        <ele>787.0</ele>
        <time>2020-11-15T07:09:12Z</time>
      </trkpt>
      <trkpt lat="47.712738924" lon="12.620260706">
        <ele>792.3</ele>
        <time>2020-11-15T07:09:42Z</time>
      </trkpt>
      <trkpt lat="47.712677401" lon="12.620084602">
        <ele>794.2</ele>
        <time>2020-11-15T07:09:57Z</time>
      </trkpt>
      <trkpt lat="47.712668432" lon="12.619973123">
        <ele>795.6</ele>
        <time>2020-11-15T07:10:05Z</time>
      </trkpt>
      <trkpt lat="47.712607579" lon="12.619745135">
        <ele>798.0</ele>
        <time>2020-11-15T07:10:21Z</time>
      </trkpt>
      <trkpt lat="47.712451676" lon="12.619358394">
        <ele>802.8</ele>
        <time>2020-11-15T07:10:52Z</time>
      </trkpt>
      <trkpt lat="47.712442707" lon="12.619300475">
        <ele>802.8</ele>
        <time>2020-11-15T07:10:56Z</time>
      </trkpt>
      <trkpt lat="47.712466649" lon="12.618935126">
        <ele>796.3</ele>
        <time>2020-11-15T07:11:13Z</time>
      </trkpt>
      <trkpt lat="47.712501571" lon="12.618684196">
        <ele>794.2</ele>
        <time>2020-11-15T07:12:12Z</time>
      </trkpt>
      <trkpt lat="47.712614452" lon="12.618407803">
        <ele>813.9</ele>
        <time>2020-11-15T07:12:36Z</time>
      </trkpt>
      <trkpt lat="47.712797164" lon="12.618157980">
        <ele>808.4</ele>
        <time>2020-11-15T07:13:10Z</time>
      </trkpt>
      <trkpt lat="47.712910381" lon="12.617992481">
        <ele>816.1</ele>
        <time>2020-11-15T07:13:29Z</time>
      </trkpt>
      <trkpt lat="47.713131774" lon="12.617821144">
        <ele>829.3</ele>
        <time>2020-11-15T07:14:07Z</time>
      </trkpt>
      <trkpt lat="47.713215111" lon="12.617746914">
        <ele>834.2</ele>
        <time>2020-11-15T07:14:35Z</time>
      </trkpt>
      <trkpt lat="47.713259188" lon="12.617757954">
        <ele>833.6</ele>
        <time>2020-11-15T07:15:04Z</time>
      </trkpt>
      <trkpt lat="47.713289447" lon="12.617631303">
        <ele>835.5</ele>
        <time>2020-11-15T07:15:16Z</time>
      </trkpt>
      <trkpt lat="47.713256255" lon="12.617509766">
        <ele>838.4</ele>
        <time>2020-11-15T07:15:37Z</time>
      </trkpt>
      <trkpt lat="47.713148212" lon="12.617406752">
        <ele>842.7</ele>
        <time>2020-11-15T07:16:04Z</time>
      </trkpt>
      <trkpt lat="47.713030279" lon="12.616963936">
        <ele>848.0</ele>
        <time>2020-11-15T07:16:41Z</time>
      </trkpt>
      <trkpt lat="47.712995913" lon="12.616753215">
        <ele>850.4</ele>
        <time>2020-11-15T07:16:56Z</time>
      </trkpt>
      <trkpt lat="47.712996080" lon="12.616632851">
        <ele>851.9</ele>
        <time>2020-11-15T07:17:06Z</time>
      </trkpt>
      <trkpt lat="47.713049809" lon="12.616307801">
        <ele>856.2</ele>
        <time>2020-11-15T07:17:33Z</time>
      </trkpt>
      <trkpt lat="47.713150536" lon="12.615515593">
        <ele>859.6</ele>
        <time>2020-11-15T07:18:34Z</time>
      </trkpt>
      <trkpt lat="47.713253153" lon="12.615114134">
        <ele>871.1</ele>
        <time>2020-11-15T07:19:13Z</time>
      </trkpt>
      <trkpt lat="47.713393215" lon="12.614528993">
        <ele>878.3</ele>
        <time>2020-11-15T07:20:04Z</time>
      </trkpt>
      <trkpt lat="47.713411320" lon="12.614217019">
        <ele>882.6</ele>
        <time>2020-11-15T07:20:34Z</time>
      </trkpt>
      <trkpt lat="47.713444177" lon="12.614056840">
        <ele>884.5</ele>
        <time>2020-11-15T07:20:50Z</time>
      </trkpt>
      <trkpt lat="47.713493798" lon="12.613920048">
        <ele>887.0</ele>
        <time>2020-11-15T07:21:03Z</time>
      </trkpt>
      <trkpt lat="47.713508466" lon="12.613782501">
        <ele>888.4</ele>
        <time>2020-11-15T07:21:15Z</time>
      </trkpt>
      <trkpt lat="47.713560685" lon="12.613639841">
        <ele>891.3</ele>
        <time>2020-11-15T07:21:31Z</time>
      </trkpt>
      <trkpt lat="47.713625645" lon="12.613254776">
        <ele>897.5</ele>
        <time>2020-11-15T07:22:12Z</time>
      </trkpt>
      <trkpt lat="47.713721786" lon="12.612963756">
        <ele>901.4</ele>
        <time>2020-11-15T07:22:42Z</time>
      </trkpt>
      <trkpt lat="47.713742573" lon="12.612779606">
        <ele>904.3</ele>
        <time>2020-11-15T07:23:00Z</time>
      </trkpt>
      <trkpt lat="47.713799570" lon="12.612623116">
        <ele>907.1</ele>
        <time>2020-11-15T07:23:20Z</time>
      </trkpt>
      <trkpt lat="47.713792445" lon="12.612531418">
        <ele>906.7</ele>
        <time>2020-11-15T07:23:58Z</time>
      </trkpt>
      <trkpt lat="47.713841379" lon="12.612443153">
        <ele>915.8</ele>
        <time>2020-11-15T07:27:16Z</time>
      </trkpt>
      <trkpt lat="47.713898560" lon="12.612380125">
        <ele>912.9</ele>
        <time>2020-11-15T07:27:30Z</time>
      </trkpt>
      <trkpt lat="47.713896297" lon="12.612116598">
        <ele>917.2</ele>
        <time>2020-11-15T07:27:53Z</time>
      </trkpt>
      <trkpt lat="47.713849610" lon="12.611942506">
        <ele>919.6</ele>
        <time>2020-11-15T07:28:08Z</time>
      </trkpt>
      <trkpt lat="47.713793445" lon="12.611679766">
        <ele>923.0</ele>
        <time>2020-11-15T07:28:21Z</time>
      </trkpt>
      <trkpt lat="47.713746345" lon="12.611309504">
        <ele>928.3</ele>
        <time>2020-11-15T07:29:05Z</time>
      </trkpt>
      <trkpt lat="47.713700363" lon="12.611206617">
        <ele>920.2</ele>
        <time>2020-11-15T07:29:15Z</time>
      </trkpt>
      <trkpt lat="47.713814828" lon="12.611001183">
        <ele>925.1</ele>
        <time>2020-11-15T07:29:32Z</time>
      </trkpt>
      <trkpt lat="47.713872899" lon="12.610871854">
        <ele>927.7</ele>
        <time>2020-11-15T07:29:45Z</time>
      </trkpt>
      <trkpt lat="47.713892954" lon="12.610806569">
        <ele>928.5</ele>
        <time>2020-11-15T07:29:53Z</time>
      </trkpt>
      <trkpt lat="47.713941475" lon="12.610616153">
        <ele>937.9</ele>
        <time>2020-11-15T07:30:09Z</time>
      </trkpt>
      <trkpt lat="47.714044908" lon="12.610334856">
        <ele>941.8</ele>
        <time>2020-11-15T07:30:35Z</time>
      </trkpt>
      <trkpt lat="47.714175833" lon="12.610208960">
        <ele>945.1</ele>
        <time>2020-11-15T07:31:17Z</time>
      </trkpt>
      <trkpt lat="47.714228891" lon="12.610072754">
        <ele>946.6</ele>
        <time>2020-11-15T07:31:49Z</time>
      </trkpt>
      <trkpt lat="47.714298293" lon="12.609971333">
        <ele>948.5</ele>
        <time>2020-11-15T07:32:02Z</time>
      </trkpt>
      <trkpt lat="47.714293767" lon="12.609829009">
        <ele>950.4</ele>
        <time>2020-11-15T07:32:15Z</time>
      </trkpt>
      <trkpt lat="47.714231992" lon="12.609753990">
        <ele>952.8</ele>
        <time>2020-11-15T07:32:30Z</time>
      </trkpt>
      <trkpt lat="47.714155465" lon="12.609793721">
        <ele>953.8</ele>
        <time>2020-11-15T07:32:46Z</time>
      </trkpt>
      <trkpt lat="47.714109281" lon="12.609842420">
        <ele>954.7</ele>
        <time>2020-11-15T07:33:04Z</time>
      </trkpt>
      <trkpt lat="47.714050273" lon="12.609955072">
        <ele>957.1</ele>
        <time>2020-11-15T07:33:17Z</time>
      </trkpt>
      <trkpt lat="47.713909624" lon="12.610035203">
        <ele>959.5</ele>
        <time>2020-11-15T07:33:36Z</time>
      </trkpt>
      <trkpt lat="47.713821446" lon="12.610034868">
        <ele>961.5</ele>
        <time>2020-11-15T07:33:48Z</time>
      </trkpt>
      <trkpt lat="47.713733101" lon="12.609993126">
        <ele>963.4</ele>
        <time>2020-11-15T07:33:59Z</time>
      </trkpt>
      <trkpt lat="47.713689935" lon="12.609857926">
        <ele>964.8</ele>
        <time>2020-11-15T07:34:13Z</time>
      </trkpt>
      <trkpt lat="47.713672500" lon="12.609773353">
        <ele>966.3</ele>
        <time>2020-11-15T07:34:33Z</time>
      </trkpt>
      <trkpt lat="47.713650037" lon="12.609579815">
        <ele>967.2</ele>
        <time>2020-11-15T07:35:27Z</time>
      </trkpt>
      <trkpt lat="47.713606451" lon="12.609436903">
        <ele>969.1</ele>
        <time>2020-11-15T07:35:40Z</time>
      </trkpt>
      <trkpt lat="47.713604690" lon="12.609155104">
        <ele>973.0</ele>
        <time>2020-11-15T07:36:04Z</time>
      </trkpt>
      <trkpt lat="47.713629250" lon="12.608927870">
        <ele>975.9</ele>
        <time>2020-11-15T07:36:23Z</time>
      </trkpt>
      <trkpt lat="47.713685995" lon="12.608571472">
        <ele>980.7</ele>
        <time>2020-11-15T07:36:56Z</time>
      </trkpt>
      <trkpt lat="47.713728447" lon="12.608314965">
        <ele>982.2</ele>
        <time>2020-11-15T07:37:11Z</time>
      </trkpt>
      <trkpt lat="47.713746224" lon="12.608036169">
        <ele>988.0</ele>
        <time>2020-11-15T07:37:56Z</time>
      </trkpt>
      <trkpt lat="47.713750832" lon="12.607889807">
        <ele>991.9</ele>
        <time>2020-11-15T07:38:09Z</time>
      </trkpt>
      <trkpt lat="47.713684151" lon="12.607505629">
        <ele>995.6</ele>
        <time>2020-11-15T07:38:57Z</time>
      </trkpt>
      <trkpt lat="47.713639894" lon="12.607401190">
        <ele>997.0</ele>
        <time>2020-11-15T07:39:12Z</time>
      </trkpt>
      <trkpt lat="47.713357261" lon="12.606955863">
        <ele>1005.8</ele>
        <time>2020-11-15T07:40:24Z</time>
      </trkpt>
      <trkpt lat="47.713250574" lon="12.606628465">
        <ele>1011.1</ele>
        <time>2020-11-15T07:41:05Z</time>
      </trkpt>
      <trkpt lat="47.713159752" lon="12.606368837">
        <ele>1016.3</ele>
        <time>2020-11-15T07:41:46Z</time>
      </trkpt>
      <trkpt lat="47.713031335" lon="12.606159950">
        <ele>1017.8</ele>
        <time>2020-11-15T07:42:07Z</time>
      </trkpt>
      <trkpt lat="47.712878072" lon="12.605882675">
        <ele>1023.5</ele>
        <time>2020-11-15T07:43:06Z</time>
      </trkpt>
      <trkpt lat="47.712702662" lon="12.605737216">
        <ele>1025.8</ele>
        <time>2020-11-15T07:43:20Z</time>
      </trkpt>
      <trkpt lat="47.712543956" lon="12.605632914">
        <ele>1026.5</ele>
        <time>2020-11-15T07:43:51Z</time>
      </trkpt>
      <trkpt lat="47.712510129" lon="12.605563907">
        <ele>1028.5</ele>
        <time>2020-11-15T07:44:08Z</time>
      </trkpt>
      <trkpt lat="47.712458801" lon="12.605440663">
        <ele>1034.0</ele>
        <time>2020-11-15T07:44:23Z</time>
      </trkpt>
      <trkpt lat="47.712540417" lon="12.605459325">
        <ele>1033.2</ele>
        <time>2020-11-15T07:44:37Z</time>
      </trkpt>
      <trkpt lat="47.712604059" lon="12.605438903">
        <ele>1038.4</ele>
        <time>2020-11-15T07:44:56Z</time>
      </trkpt>
      <trkpt lat="47.712658290" lon="12.605444938">
        <ele>1038.4</ele>
        <time>2020-11-15T07:45:02Z</time>
      </trkpt>
      <trkpt lat="47.712865574" lon="12.605329016">
        <ele>1040.8</ele>
        <time>2020-11-15T07:45:32Z</time>
      </trkpt>
      <trkpt lat="47.712975377" lon="12.605324322">
        <ele>1043.2</ele>
        <time>2020-11-15T07:45:52Z</time>
      </trkpt>
      <trkpt lat="47.713118624" lon="12.605394060">
        <ele>1045.1</ele>
        <time>2020-11-15T07:46:09Z</time>
      </trkpt>
      <trkpt lat="47.713264888" lon="12.605419289">
        <ele>1047.0</ele>
        <time>2020-11-15T07:46:27Z</time>
      </trkpt>
      <trkpt lat="47.713393634" lon="12.605334381">
        <ele>1049.4</ele>
        <time>2020-11-15T07:46:44Z</time>
      </trkpt>
      <trkpt lat="47.713333285" lon="12.605204210">
        <ele>1051.8</ele>
        <time>2020-11-15T07:47:00Z</time>
      </trkpt>
      <trkpt lat="47.713211915" lon="12.605167832">
        <ele>1054.7</ele>
        <time>2020-11-15T07:47:19Z</time>
      </trkpt>
      <trkpt lat="47.712988034" lon="12.605008325">
        <ele>1059.0</ele>
        <time>2020-11-15T07:47:52Z</time>
      </trkpt>
      <trkpt lat="47.712573381" lon="12.604639856">
        <ele>1067.7</ele>
        <time>2020-11-15T07:48:57Z</time>
      </trkpt>
      <trkpt lat="47.712504817" lon="12.604495687">
        <ele>1069.6</ele>
        <time>2020-11-15T07:49:13Z</time>
      </trkpt>
      <trkpt lat="47.712437846" lon="12.604288738">
        <ele>1073.0</ele>
        <time>2020-11-15T07:49:41Z</time>
      </trkpt>
      <trkpt lat="47.712373389" lon="12.604160914">
        <ele>1074.9</ele>
        <time>2020-11-15T07:49:57Z</time>
      </trkpt>
      <trkpt lat="47.712360397" lon="12.604054045">
        <ele>1076.8</ele>
        <time>2020-11-15T07:50:09Z</time>
      </trkpt>
      <trkpt lat="47.712296694" lon="12.603903087">
        <ele>1079.2</ele>
        <time>2020-11-15T07:50:28Z</time>
      </trkpt>
      <trkpt lat="47.712197704" lon="12.603892442">
        <ele>1081.1</ele>
        <time>2020-11-15T07:50:43Z</time>
      </trkpt>
      <trkpt lat="47.712143809" lon="12.603936698">
        <ele>1082.6</ele>
        <time>2020-11-15T07:50:55Z</time>
      </trkpt>
      <trkpt lat="47.712094607" lon="12.603874840">
        <ele>1087.4</ele>
        <time>2020-11-15T07:51:29Z</time>
      </trkpt>
      <trkpt lat="47.712034724" lon="12.603797638">
        <ele>1087.9</ele>
        <time>2020-11-15T07:52:04Z</time>
      </trkpt>
      <trkpt lat="47.712123524" lon="12.603577366">
        <ele>1096.0</ele>
        <time>2020-11-15T07:52:24Z</time>
      </trkpt>
      <trkpt lat="47.712086057" lon="12.603545515">
        <ele>1098.0</ele>
        <time>2020-11-15T07:52:37Z</time>
      </trkpt>
      <trkpt lat="47.711945577" lon="12.603631178">
        <ele>1100.4</ele>
        <time>2020-11-15T07:53:46Z</time>
      </trkpt>
      <trkpt lat="47.711911462" lon="12.603675937">
        <ele>1099.4</ele>
        <time>2020-11-15T07:54:30Z</time>
      </trkpt>
      <trkpt lat="47.711904673" lon="12.603788925">
        <ele>1099.4</ele>
        <time>2020-11-15T07:54:40Z</time>
      </trkpt>
      <trkpt lat="47.711883299" lon="12.603868134">
        <ele>1099.9</ele>
        <time>2020-11-15T07:54:46Z</time>
      </trkpt>
      <trkpt lat="47.711827978" lon="12.603898142">
        <ele>1100.4</ele>
        <time>2020-11-15T07:54:53Z</time>
      </trkpt>
      <trkpt lat="47.711792774" lon="12.603910463">
        <ele>1100.4</ele>
        <time>2020-11-15T07:55:14Z</time>
      </trkpt>
      <trkpt lat="47.711679954" lon="12.603779873">
        <ele>1100.4</ele>
        <time>2020-11-15T07:56:12Z</time>
      </trkpt>
      <trkpt lat="47.711559758" lon="12.603574181">
        <ele>1101.8</ele>
        <time>2020-11-15T07:56:31Z</time>
      </trkpt>
      <trkpt lat="47.711367980" lon="12.602997003">
        <ele>1107.6</ele>
        <time>2020-11-15T07:57:27Z</time>
      </trkpt>
      <trkpt lat="47.711018873" lon="12.602592995">
        <ele>1112.9</ele>
        <time>2020-11-15T07:58:22Z</time>
      </trkpt>
      <trkpt lat="47.710913848" lon="12.602360398">
        <ele>1115.8</ele>
        <time>2020-11-15T07:58:42Z</time>
      </trkpt>
      <trkpt lat="47.710876213" lon="12.602202566">
        <ele>1117.2</ele>
        <time>2020-11-15T07:58:55Z</time>
      </trkpt>
      <trkpt lat="47.710844530" lon="12.601937614">
        <ele>1120.5</ele>
        <time>2020-11-15T07:59:14Z</time>
      </trkpt>
      <trkpt lat="47.710842770" lon="12.601760421">
        <ele>1122.5</ele>
        <time>2020-11-15T07:59:27Z</time>
      </trkpt>
      <trkpt lat="47.710931282" lon="12.601354150">
        <ele>1126.8</ele>
        <time>2020-11-15T07:59:59Z</time>
      </trkpt>
      <trkpt lat="47.710945532" lon="12.601176202">
        <ele>1129.2</ele>
        <time>2020-11-15T08:00:16Z</time>
      </trkpt>
      <trkpt lat="47.711096406" lon="12.601076625">
        <ele>1130.7</ele>
        <time>2020-11-15T08:00:41Z</time>
      </trkpt>
      <trkpt lat="47.711235462" lon="12.601058856">
        <ele>1133.0</ele>
        <time>2020-11-15T08:01:58Z</time>
      </trkpt>
      <trkpt lat="47.711422378" lon="12.601226158">
        <ele>1135.0</ele>
        <time>2020-11-15T08:02:45Z</time>
      </trkpt>
      <trkpt lat="47.711494882" lon="12.601237390">
        <ele>1136.4</ele>
        <time>2020-11-15T08:03:17Z</time>
      </trkpt>
      <trkpt lat="47.711623544" lon="12.601212412">
        <ele>1137.4</ele>
        <time>2020-11-15T08:03:33Z</time>
      </trkpt>
      <trkpt lat="47.711683474" lon="12.601237809">
        <ele>1138.8</ele>
        <time>2020-11-15T08:03:48Z</time>
      </trkpt>
      <trkpt lat="47.711703256" lon="12.601346942">
        <ele>1139.3</ele>
        <time>2020-11-15T08:03:59Z</time>
      </trkpt>
      <trkpt lat="47.711687162" lon="12.601469569">
        <ele>1141.2</ele>
        <time>2020-11-15T08:04:11Z</time>
      </trkpt>
      <trkpt lat="47.711803922" lon="12.601690432">
        <ele>1143.1</ele>
        <time>2020-11-15T08:04:29Z</time>
      </trkpt>
      <trkpt lat="47.711844658" lon="12.601731503">
        <ele>1143.6</ele>
        <time>2020-11-15T08:04:35Z</time>
      </trkpt>
      <trkpt lat="47.711977679" lon="12.601765199">
        <ele>1145.1</ele>
        <time>2020-11-15T08:04:52Z</time>
      </trkpt>
      <trkpt lat="47.712104414" lon="12.601531427">
        <ele>1147.5</ele>
        <time>2020-11-15T08:05:25Z</time>
      </trkpt>
      <trkpt lat="47.712142970" lon="12.601419864">
        <ele>1148.9</ele>
        <time>2020-11-15T08:05:41Z</time>
      </trkpt>
      <trkpt lat="47.712182533" lon="12.601441070">
        <ele>1150.8</ele>
        <time>2020-11-15T08:06:57Z</time>
      </trkpt>
      <trkpt lat="47.712137774" lon="12.601409052">
        <ele>1150.3</ele>
        <time>2020-11-15T08:07:14Z</time>
      </trkpt>
      <trkpt lat="47.712157303" lon="12.601422714">
        <ele>1150.3</ele>
        <time>2020-11-15T08:07:39Z</time>
      </trkpt>
      <trkpt lat="47.712148251" lon="12.601429587">
        <ele>1150.3</ele>
        <time>2020-11-15T08:08:09Z</time>
      </trkpt>
      <trkpt lat="47.712135594" lon="12.601399412">
        <ele>1150.3</ele>
        <time>2020-11-15T08:08:52Z</time>
      </trkpt>
      <trkpt lat="47.712128889" lon="12.601270331">
        <ele>1150.3</ele>
        <time>2020-11-15T08:09:15Z</time>
      </trkpt>
      <trkpt lat="47.712328378" lon="12.600842686">
        <ele>1156.1</ele>
        <time>2020-11-15T08:10:05Z</time>
      </trkpt>
      <trkpt lat="47.712333156" lon="12.600605981">
        <ele>1160.9</ele>
        <time>2020-11-15T08:10:42Z</time>
      </trkpt>
      <trkpt lat="47.712360397" lon="12.600452174">
        <ele>1163.8</ele>
        <time>2020-11-15T08:11:11Z</time>
      </trkpt>
      <trkpt lat="47.712314129" lon="12.600269783">
        <ele>1166.7</ele>
        <time>2020-11-15T08:11:28Z</time>
      </trkpt>
      <trkpt lat="47.712257216" lon="12.600138187">
        <ele>1169.1</ele>
        <time>2020-11-15T08:11:43Z</time>
      </trkpt>
      <trkpt lat="47.712224275" lon="12.599962838">
        <ele>1172.0</ele>
        <time>2020-11-15T08:11:58Z</time>
      </trkpt>
      <trkpt lat="47.712156465" lon="12.599723032">
        <ele>1176.3</ele>
        <time>2020-11-15T08:12:19Z</time>
      </trkpt>
      <trkpt lat="47.712038448" lon="12.599393455">
        <ele>1182.6</ele>
        <time>2020-11-15T08:12:49Z</time>
      </trkpt>
      <trkpt lat="47.711978518" lon="12.599069914">
        <ele>1188.3</ele>
        <time>2020-11-15T08:13:18Z</time>
      </trkpt>
      <trkpt lat="47.712038448" lon="12.598640174">
        <ele>1196.0</ele>
        <time>2020-11-15T08:14:05Z</time>
      </trkpt>
      <trkpt lat="47.712015063" lon="12.598474296">
        <ele>1198.4</ele>
        <time>2020-11-15T08:14:21Z</time>
      </trkpt>
      <trkpt lat="47.711900650" lon="12.597993342">
        <ele>1204.7</ele>
        <time>2020-11-15T08:15:08Z</time>
      </trkpt>
      <trkpt lat="47.711841641" lon="12.597648511">
        <ele>1209.0</ele>
        <time>2020-11-15T08:15:41Z</time>
      </trkpt>
      <trkpt lat="47.711776095" lon="12.597427480">
        <ele>1211.4</ele>
        <time>2020-11-15T08:16:00Z</time>
      </trkpt>
      <trkpt lat="47.711746423" lon="12.597228326">
        <ele>1213.8</ele>
        <time>2020-11-15T08:16:17Z</time>
      </trkpt>
      <trkpt lat="47.711675512" lon="12.597121457">
        <ele>1215.7</ele>
        <time>2020-11-15T08:16:30Z</time>
      </trkpt>
      <trkpt lat="47.711594123" lon="12.597088432">
        <ele>1216.7</ele>
        <time>2020-11-15T08:16:42Z</time>
      </trkpt>
      <trkpt lat="47.711505527" lon="12.597107375">
        <ele>1217.7</ele>
        <time>2020-11-15T08:16:51Z</time>
      </trkpt>
      <trkpt lat="47.711167652" lon="12.597281467">
        <ele>1222.0</ele>
        <time>2020-11-15T08:17:28Z</time>
      </trkpt>
      <trkpt lat="47.711055754" lon="12.597307367">
        <ele>1224.4</ele>
        <time>2020-11-15T08:17:42Z</time>
      </trkpt>
      <trkpt lat="47.710965229" lon="12.597300243">
        <ele>1226.3</ele>
        <time>2020-11-15T08:17:52Z</time>
      </trkpt>
      <trkpt lat="47.710783761" lon="12.597197397">
        <ele>1230.6</ele>
        <time>2020-11-15T08:18:18Z</time>
      </trkpt>
      <trkpt lat="47.710739002" lon="12.597027831">
        <ele>1233.0</ele>
        <time>2020-11-15T08:18:34Z</time>
      </trkpt>
      <trkpt lat="47.710741684" lon="12.596703870">
        <ele>1237.8</ele>
        <time>2020-11-15T08:19:08Z</time>
      </trkpt>
      <trkpt lat="47.710715029" lon="12.596515780">
        <ele>1241.2</ele>
        <time>2020-11-15T08:19:28Z</time>
      </trkpt>
      <trkpt lat="47.710713772" lon="12.596272705">
        <ele>1244.1</ele>
        <time>2020-11-15T08:19:45Z</time>
      </trkpt>
      <trkpt lat="47.710688123" lon="12.596076569">
        <ele>1247.0</ele>
        <time>2020-11-15T08:20:02Z</time>
      </trkpt>
      <trkpt lat="47.710610675" lon="12.595697790">
        <ele>1252.7</ele>
        <time>2020-11-15T08:20:33Z</time>
      </trkpt>
      <trkpt lat="47.710523000" lon="12.595381960">
        <ele>1258.0</ele>
        <time>2020-11-15T08:21:03Z</time>
      </trkpt>
      <trkpt lat="47.710445467" lon="12.594965966">
        <ele>1264.3</ele>
        <time>2020-11-15T08:21:37Z</time>
      </trkpt>
      <trkpt lat="47.710300125" lon="12.594465986">
        <ele>1272.4</ele>
        <time>2020-11-15T08:22:23Z</time>
      </trkpt>
      <trkpt lat="47.710242206" lon="12.594092740">
        <ele>1277.7</ele>
        <time>2020-11-15T08:22:59Z</time>
      </trkpt>
      <trkpt lat="47.710122513" lon="12.593496451">
        <ele>1285.9</ele>
        <time>2020-11-15T08:23:56Z</time>
      </trkpt>
      <trkpt lat="47.710038442" lon="12.593431659">
        <ele>1287.8</ele>
        <time>2020-11-15T08:24:11Z</time>
      </trkpt>
      <trkpt lat="47.709941128" lon="12.593293609">
        <ele>1291.2</ele>
        <time>2020-11-15T08:24:32Z</time>
      </trkpt>
      <trkpt lat="47.709866026" lon="12.593083475">
        <ele>1294.5</ele>
        <time>2020-11-15T08:24:53Z</time>
      </trkpt>
      <trkpt lat="47.709844317" lon="12.592875352">
        <ele>1297.4</ele>
        <time>2020-11-15T08:25:14Z</time>
      </trkpt>
      <trkpt lat="47.709850352" lon="12.592728836">
        <ele>1299.8</ele>
        <time>2020-11-15T08:25:28Z</time>
      </trkpt>
      <trkpt lat="47.709885389" lon="12.592508979">
        <ele>1302.2</ele>
        <time>2020-11-15T08:25:50Z</time>
      </trkpt>
      <trkpt lat="47.709875330" lon="12.592315022">
        <ele>1304.2</ele>
        <time>2020-11-15T08:26:11Z</time>
      </trkpt>
      <trkpt lat="47.709768461" lon="12.592167584">
        <ele>1308.0</ele>
        <time>2020-11-15T08:26:45Z</time>
      </trkpt>
      <trkpt lat="47.709723199" lon="12.591999862">
        <ele>1308.5</ele>
        <time>2020-11-15T08:27:00Z</time>
      </trkpt>
      <trkpt lat="47.709659915" lon="12.591940183">
        <ele>1309.0</ele>
        <time>2020-11-15T08:27:38Z</time>
      </trkpt>
      <trkpt lat="47.709679026" lon="12.591838511">
        <ele>1309.9</ele>
        <time>2020-11-15T08:28:01Z</time>
      </trkpt>
      <trkpt lat="47.709678942" lon="12.591622341">
        <ele>1315.2</ele>
        <time>2020-11-15T08:28:33Z</time>
      </trkpt>
      <trkpt lat="47.709744237" lon="12.591497954">
        <ele>1317.6</ele>
        <time>2020-11-15T08:28:49Z</time>
      </trkpt>
      <trkpt lat="47.709689252" lon="12.591326376">
        <ele>1320.5</ele>
        <time>2020-11-15T08:29:06Z</time>
      </trkpt>
      <trkpt lat="47.709675506" lon="12.591188997">
        <ele>1322.9</ele>
        <time>2020-11-15T08:29:21Z</time>
      </trkpt>
      <trkpt lat="47.709720684" lon="12.591082463">
        <ele>1325.8</ele>
        <time>2020-11-15T08:29:39Z</time>
      </trkpt>
      <trkpt lat="47.709751697" lon="12.590954891">
        <ele>1328.2</ele>
        <time>2020-11-15T08:29:54Z</time>
      </trkpt>
      <trkpt lat="47.709687157" lon="12.590883225">
        <ele>1331.1</ele>
        <time>2020-11-15T08:30:11Z</time>
      </trkpt>
      <trkpt lat="47.709718589" lon="12.590759089">
        <ele>1334.0</ele>
        <time>2020-11-15T08:30:27Z</time>
      </trkpt>
      <trkpt lat="47.709667208" lon="12.590632942">
        <ele>1336.8</ele>
        <time>2020-11-15T08:30:43Z</time>
      </trkpt>
      <trkpt lat="47.709595794" lon="12.590281488">
        <ele>1342.1</ele>
        <time>2020-11-15T08:31:19Z</time>
      </trkpt>
      <trkpt lat="47.709622029" lon="12.590055512">
        <ele>1347.9</ele>
        <time>2020-11-15T08:31:54Z</time>
      </trkpt>
      <trkpt lat="47.709672153" lon="12.589978399">
        <ele>1350.3</ele>
        <time>2020-11-15T08:32:09Z</time>
      </trkpt>
      <trkpt lat="47.709803162" lon="12.589555448">
        <ele>1361.4</ele>
        <time>2020-11-15T08:33:15Z</time>
      </trkpt>
      <trkpt lat="47.709723115" lon="12.589486297">
        <ele>1363.8</ele>
        <time>2020-11-15T08:33:30Z</time>
      </trkpt>
      <trkpt lat="47.709651701" lon="12.589543546">
        <ele>1366.7</ele>
        <time>2020-11-15T08:33:46Z</time>
      </trkpt>
      <trkpt lat="47.709576180" lon="12.589529883">
        <ele>1369.5</ele>
        <time>2020-11-15T08:34:01Z</time>
      </trkpt>
      <trkpt lat="47.709564865" lon="12.589447489">
        <ele>1371.0</ele>
        <time>2020-11-15T08:34:17Z</time>
      </trkpt>
      <trkpt lat="47.709639045" lon="12.589084469">
        <ele>1374.8</ele>
        <time>2020-11-15T08:34:52Z</time>
      </trkpt>
      <trkpt lat="47.709653210" lon="12.588714827">
        <ele>1380.6</ele>
        <time>2020-11-15T08:35:27Z</time>
      </trkpt>
      <trkpt lat="47.709579701" lon="12.588478625">
        <ele>1384.9</ele>
        <time>2020-11-15T08:35:58Z</time>
      </trkpt>
      <trkpt lat="47.709560506" lon="12.588199926">
        <ele>1388.8</ele>
        <time>2020-11-15T08:36:32Z</time>
      </trkpt>
      <trkpt lat="47.709584646" lon="12.588138152">
        <ele>1391.2</ele>
        <time>2020-11-15T08:36:45Z</time>
      </trkpt>
      <trkpt lat="47.709644409" lon="12.588106636">
        <ele>1394.0</ele>
        <time>2020-11-15T08:37:01Z</time>
      </trkpt>
      <trkpt lat="47.709658155" lon="12.588022482">
        <ele>1396.0</ele>
        <time>2020-11-15T08:37:16Z</time>
      </trkpt>
      <trkpt lat="47.709625382" lon="12.587798182">
        <ele>1402.2</ele>
        <time>2020-11-15T08:37:59Z</time>
      </trkpt>
      <trkpt lat="47.709573079" lon="12.587644039">
        <ele>1405.6</ele>
        <time>2020-11-15T08:38:27Z</time>
      </trkpt>
      <trkpt lat="47.709588502" lon="12.587549659">
        <ele>1408.0</ele>
        <time>2020-11-15T08:38:43Z</time>
      </trkpt>
      <trkpt lat="47.709574923" lon="12.587424265">
        <ele>1409.9</ele>
        <time>2020-11-15T08:38:56Z</time>
      </trkpt>
      <trkpt lat="47.709498480" lon="12.587194517">
        <ele>1414.2</ele>
        <time>2020-11-15T08:39:47Z</time>
      </trkpt>
      <trkpt lat="47.709527230" lon="12.587094773">
        <ele>1416.6</ele>
        <time>2020-11-15T08:40:03Z</time>
      </trkpt>
      <trkpt lat="47.709537623" lon="12.586829485">
        <ele>1422.4</ele>
        <time>2020-11-15T08:40:45Z</time>
      </trkpt>
      <trkpt lat="47.709568217" lon="12.586668972">
        <ele>1426.7</ele>
        <time>2020-11-15T08:41:10Z</time>
      </trkpt>
      <trkpt lat="47.709537456" lon="12.586309640">
        <ele>1435.4</ele>
        <time>2020-11-15T08:42:06Z</time>
      </trkpt>
      <trkpt lat="47.709534271" lon="12.586197238">
        <ele>1437.3</ele>
        <time>2020-11-15T08:42:24Z</time>
      </trkpt>
      <trkpt lat="47.709548436" lon="12.586137895">
        <ele>1439.2</ele>
        <time>2020-11-15T08:42:38Z</time>
      </trkpt>
      <trkpt lat="47.709523877" lon="12.586046951">
        <ele>1440.7</ele>
        <time>2020-11-15T08:42:53Z</time>
      </trkpt>
      <trkpt lat="47.709444333" lon="12.585899932">
        <ele>1442.6</ele>
        <time>2020-11-15T08:43:12Z</time>
      </trkpt>
      <trkpt lat="47.709491188" lon="12.585826842">
        <ele>1445.0</ele>
        <time>2020-11-15T08:43:29Z</time>
      </trkpt>
      <trkpt lat="47.709547766" lon="12.585828099">
        <ele>1446.4</ele>
        <time>2020-11-15T08:43:56Z</time>
      </trkpt>
      <trkpt lat="47.709510634" lon="12.585830782">
        <ele>1446.0</ele>
        <time>2020-11-15T08:46:50Z</time>
      </trkpt>
      <trkpt lat="47.709528655" lon="12.585821729">
        <ele>1446.0</ele>
        <time>2020-11-15T08:47:23Z</time>
      </trkpt>
      <trkpt lat="47.709515831" lon="12.585825250">
        <ele>1446.0</ele>
        <time>2020-11-15T08:47:39Z</time>
      </trkpt>
      <trkpt lat="47.709513567" lon="12.585776215">
        <ele>1446.0</ele>
        <time>2020-11-15T08:47:54Z</time>
      </trkpt>
      <trkpt lat="47.709431509" lon="12.585662808">
        <ele>1446.0</ele>
        <time>2020-11-15T08:48:25Z</time>
      </trkpt>
      <trkpt lat="47.709349450" lon="12.585603297">
        <ele>1453.7</ele>
        <time>2020-11-15T08:48:45Z</time>
      </trkpt>
      <trkpt lat="47.709293291" lon="12.585602626">
        <ele>1455.6</ele>
        <time>2020-11-15T08:49:00Z</time>
      </trkpt>
      <trkpt lat="47.709281221" lon="12.585468516">
        <ele>1458.0</ele>
        <time>2020-11-15T08:50:00Z</time>
      </trkpt>
      <trkpt lat="47.709204107" lon="12.585435742">
        <ele>1461.8</ele>
        <time>2020-11-15T08:50:28Z</time>
      </trkpt>
      <trkpt lat="47.709177285" lon="12.585475221">
        <ele>1464.2</ele>
        <time>2020-11-15T08:50:41Z</time>
      </trkpt>
      <trkpt lat="47.709115427" lon="12.585446220">
        <ele>1465.7</ele>
        <time>2020-11-15T08:50:55Z</time>
      </trkpt>
      <trkpt lat="47.709068907" lon="12.585336836">
        <ele>1467.6</ele>
        <time>2020-11-15T08:51:10Z</time>
      </trkpt>
      <trkpt lat="47.709023058" lon="12.585049756">
        <ele>1471.0</ele>
        <time>2020-11-15T08:51:51Z</time>
      </trkpt>
      <trkpt lat="47.708916189" lon="12.584796371">
        <ele>1476.2</ele>
        <time>2020-11-15T08:52:36Z</time>
      </trkpt>
      <trkpt lat="47.708890289" lon="12.584640132">
        <ele>1477.2</ele>
        <time>2020-11-15T08:52:52Z</time>
      </trkpt>
      <trkpt lat="47.708837567" lon="12.584426729">
        <ele>1480.6</ele>
        <time>2020-11-15T08:53:26Z</time>
      </trkpt>
      <trkpt lat="47.708792053" lon="12.584284069">
        <ele>1480.1</ele>
        <time>2020-11-15T08:53:41Z</time>
      </trkpt>
      <trkpt lat="47.708672360" lon="12.584132189">
        <ele>1483.0</ele>
        <time>2020-11-15T08:54:10Z</time>
      </trkpt>
      <trkpt lat="47.708620895" lon="12.584001683">
        <ele>1483.0</ele>
        <time>2020-11-15T08:54:24Z</time>
      </trkpt>
      <trkpt lat="47.708497178" lon="12.583834464">
        <ele>1485.4</ele>
        <time>2020-11-15T08:54:50Z</time>
      </trkpt>
      <trkpt lat="47.708318560" lon="12.583636148">
        <ele>1491.6</ele>
        <time>2020-11-15T08:55:35Z</time>
      </trkpt>
      <trkpt lat="47.708280422" lon="12.583619384">
        <ele>1494.0</ele>
        <time>2020-11-15T08:55:48Z</time>
      </trkpt>
      <trkpt lat="47.708170954" lon="12.583474126">
        <ele>1499.8</ele>
        <time>2020-11-15T08:56:30Z</time>
      </trkpt>
      <trkpt lat="47.708088141" lon="12.583424589">
        <ele>1502.7</ele>
        <time>2020-11-15T08:56:59Z</time>
      </trkpt>
      <trkpt lat="47.707982780" lon="12.583379494">
        <ele>1503.6</ele>
        <time>2020-11-15T08:57:18Z</time>
      </trkpt>
      <trkpt lat="47.707851939" lon="12.583391732">
        <ele>1510.8</ele>
        <time>2020-11-15T08:58:05Z</time>
      </trkpt>
      <trkpt lat="47.707779603" lon="12.583326856">
        <ele>1516.1</ele>
        <time>2020-11-15T08:58:34Z</time>
      </trkpt>
      <trkpt lat="47.707784800" lon="12.583397934">
        <ele>1518.1</ele>
        <time>2020-11-15T08:58:51Z</time>
      </trkpt>
      <trkpt lat="47.707765019" lon="12.583434898">
        <ele>1519.5</ele>
        <time>2020-11-15T08:59:03Z</time>
      </trkpt>
      <trkpt lat="47.707723360" lon="12.583357953">
        <ele>1522.4</ele>
        <time>2020-11-15T08:59:20Z</time>
      </trkpt>
      <trkpt lat="47.707595956" lon="12.583314450">
        <ele>1527.2</ele>
        <time>2020-11-15T08:59:55Z</time>
      </trkpt>
      <trkpt lat="47.707549771" lon="12.583306739">
        <ele>1529.6</ele>
        <time>2020-11-15T09:00:10Z</time>
      </trkpt>
      <trkpt lat="47.707527056" lon="12.583336327">
        <ele>1531.5</ele>
        <time>2020-11-15T09:00:23Z</time>
      </trkpt>
      <trkpt lat="47.707453379" lon="12.583291903">
        <ele>1536.8</ele>
        <time>2020-11-15T09:00:54Z</time>
      </trkpt>
      <trkpt lat="47.707412979" lon="12.583326185">
        <ele>1541.1</ele>
        <time>2020-11-15T09:02:41Z</time>
      </trkpt>
      <trkpt lat="47.707369393" lon="12.583254436">
        <ele>1545.0</ele>
        <time>2020-11-15T09:03:07Z</time>
      </trkpt>
      <trkpt lat="47.707261266" lon="12.583188973">
        <ele>1553.2</ele>
        <time>2020-11-15T09:04:11Z</time>
      </trkpt>
      <trkpt lat="47.707215333" lon="12.583139855">
        <ele>1557.5</ele>
        <time>2020-11-15T09:04:38Z</time>
      </trkpt>
      <trkpt lat="47.707185997" lon="12.583154859">
        <ele>1559.4</ele>
        <time>2020-11-15T09:04:53Z</time>
      </trkpt>
      <trkpt lat="47.707168981" lon="12.583263991">
        <ele>1564.2</ele>
        <time>2020-11-15T09:05:23Z</time>
      </trkpt>
      <trkpt lat="47.707109721" lon="12.583200624">
        <ele>1567.6</ele>
        <time>2020-11-15T09:05:53Z</time>
      </trkpt>
      <trkpt lat="47.707082229" lon="12.583118482">
        <ele>1571.9</ele>
        <time>2020-11-15T09:06:23Z</time>
      </trkpt>
      <trkpt lat="47.707032021" lon="12.583057377">
        <ele>1573.8</ele>
        <time>2020-11-15T09:06:38Z</time>
      </trkpt>
      <trkpt lat="47.707022298" lon="12.583020246">
        <ele>1575.3</ele>
        <time>2020-11-15T09:06:51Z</time>
      </trkpt>
      <trkpt lat="47.706998410" lon="12.583026448">
        <ele>1576.7</ele>
        <time>2020-11-15T09:07:12Z</time>
      </trkpt>
      <trkpt lat="47.706991285" lon="12.582987137">
        <ele>1577.7</ele>
        <time>2020-11-15T09:07:31Z</time>
      </trkpt>
      <trkpt lat="47.706961445" lon="12.582986634">
        <ele>1579.6</ele>
        <time>2020-11-15T09:07:46Z</time>
      </trkpt>
      <trkpt lat="47.706963876" lon="12.582971128">
        <ele>1580.1</ele>
        <time>2020-11-15T09:08:49Z</time>
      </trkpt>
      <trkpt lat="47.706900174" lon="12.582959477">
        <ele>1583.9</ele>
        <time>2020-11-15T09:09:17Z</time>
      </trkpt>
      <trkpt lat="47.706789616" lon="12.582775829">
        <ele>1592.6</ele>
        <time>2020-11-15T09:10:10Z</time>
      </trkpt>
      <trkpt lat="47.706778972" lon="12.582701482">
        <ele>1595.0</ele>
        <time>2020-11-15T09:10:24Z</time>
      </trkpt>
      <trkpt lat="47.706627427" lon="12.582652364">
        <ele>1602.2</ele>
        <time>2020-11-15T09:11:13Z</time>
      </trkpt>
      <trkpt lat="47.706493735" lon="12.582717994">
        <ele>1609.4</ele>
        <time>2020-11-15T09:11:56Z</time>
      </trkpt>
      <trkpt lat="47.706459118" lon="12.582749259">
        <ele>1612.3</ele>
        <time>2020-11-15T09:12:14Z</time>
      </trkpt>
      <trkpt lat="47.706462303" lon="12.582810950">
        <ele>1615.6</ele>
        <time>2020-11-15T09:12:30Z</time>
      </trkpt>
      <trkpt lat="47.706410503" lon="12.582836514">
        <ele>1619.5</ele>
        <time>2020-11-15T09:12:54Z</time>
      </trkpt>
      <trkpt lat="47.706355769" lon="12.582745906">
        <ele>1623.3</ele>
        <time>2020-11-15T09:13:24Z</time>
      </trkpt>
      <trkpt lat="47.706304891" lon="12.582754707">
        <ele>1625.7</ele>
        <time>2020-11-15T09:13:38Z</time>
      </trkpt>
      <trkpt lat="47.706254516" lon="12.582711959">
        <ele>1628.6</ele>
        <time>2020-11-15T09:13:54Z</time>
      </trkpt>
      <trkpt lat="47.706183856" lon="12.582577597">
        <ele>1632.9</ele>
        <time>2020-11-15T09:14:25Z</time>
      </trkpt>
      <trkpt lat="47.706076903" lon="12.582469890">
        <ele>1639.2</ele>
        <time>2020-11-15T09:15:03Z</time>
      </trkpt>
      <trkpt lat="47.706059972" lon="12.582511548">
        <ele>1641.6</ele>
        <time>2020-11-15T09:15:16Z</time>
      </trkpt>
      <trkpt lat="47.705980930" lon="12.582593020">
        <ele>1647.4</ele>
        <time>2020-11-15T09:16:03Z</time>
      </trkpt>
      <trkpt lat="47.705944469" lon="12.582570389">
        <ele>1650.7</ele>
        <time>2020-11-15T09:16:16Z</time>
      </trkpt>
      <trkpt lat="47.705924939" lon="12.582475673">
        <ele>1653.6</ele>
        <time>2020-11-15T09:16:29Z</time>
      </trkpt>
      <trkpt lat="47.705874983" lon="12.582477350">
        <ele>1656.0</ele>
        <time>2020-11-15T09:16:43Z</time>
      </trkpt>
      <trkpt lat="47.705776496" lon="12.582403757">
        <ele>1661.3</ele>
        <time>2020-11-15T09:17:09Z</time>
      </trkpt>
      <trkpt lat="47.705677338" lon="12.582399985">
        <ele>1664.2</ele>
        <time>2020-11-15T09:17:25Z</time>
      </trkpt>
      <trkpt lat="47.705630148" lon="12.582449187">
        <ele>1665.6</ele>
        <time>2020-11-15T09:17:38Z</time>
      </trkpt>
      <trkpt lat="47.705617826" lon="12.582519343">
        <ele>1664.7</ele>
        <time>2020-11-15T09:17:52Z</time>
      </trkpt>
      <trkpt lat="47.705632243" lon="12.582672061">
        <ele>1663.2</ele>
        <time>2020-11-15T09:18:20Z</time>
      </trkpt>
      <trkpt lat="47.705658898" lon="12.582689580">
        <ele>1663.2</ele>
        <time>2020-11-15T09:18:33Z</time>
      </trkpt>
      <trkpt lat="47.705707010" lon="12.582945144">
        <ele>1668.5</ele>
        <time>2020-11-15T09:20:03Z</time>
      </trkpt>
      <trkpt lat="47.705751015" lon="12.583026281">
        <ele>1671.9</ele>
        <time>2020-11-15T09:20:34Z</time>
      </trkpt>
      <trkpt lat="47.705752691" lon="12.583094342">
        <ele>1673.3</ele>
        <time>2020-11-15T09:20:48Z</time>
      </trkpt>
      <trkpt lat="47.705824440" lon="12.583197020">
        <ele>1676.7</ele>
        <time>2020-11-15T09:21:15Z</time>
      </trkpt>
      <trkpt lat="47.705871044" lon="12.583209090">
        <ele>1679.6</ele>
        <time>2020-11-15T09:21:30Z</time>
      </trkpt>
      <trkpt lat="47.705879509" lon="12.583189560">
        <ele>1680.5</ele>
        <time>2020-11-15T09:21:43Z</time>
      </trkpt>
      <trkpt lat="47.705892837" lon="12.583219064">
        <ele>1680.5</ele>
        <time>2020-11-15T09:21:57Z</time>
      </trkpt>
      <trkpt lat="47.705913288" lon="12.583309002">
        <ele>1682.4</ele>
        <time>2020-11-15T09:22:11Z</time>
      </trkpt>
      <trkpt lat="47.705922341" lon="12.583474545">
        <ele>1682.9</ele>
        <time>2020-11-15T09:22:35Z</time>
      </trkpt>
      <trkpt lat="47.705979170" lon="12.583504720">
        <ele>1682.9</ele>
        <time>2020-11-15T09:22:48Z</time>
      </trkpt>
      <trkpt lat="47.706009513" lon="12.583548976">
        <ele>1684.4</ele>
        <time>2020-11-15T09:23:00Z</time>
      </trkpt>
      <trkpt lat="47.706009094" lon="12.583648386">
        <ele>1683.9</ele>
        <time>2020-11-15T09:23:12Z</time>
      </trkpt>
      <trkpt lat="47.706061564" lon="12.583765900">
        <ele>1688.2</ele>
        <time>2020-11-15T09:23:42Z</time>
      </trkpt>
      <trkpt lat="47.706087381" lon="12.583845025">
        <ele>1689.2</ele>
        <time>2020-11-15T09:23:55Z</time>
      </trkpt>
      <trkpt lat="47.706142534" lon="12.584059434">
        <ele>1689.7</ele>
        <time>2020-11-15T09:24:33Z</time>
      </trkpt>
      <trkpt lat="47.706208834" lon="12.584062535">
        <ele>1692.5</ele>
        <time>2020-11-15T09:25:10Z</time>
      </trkpt>
      <trkpt lat="47.706230963" lon="12.584023476">
        <ele>1694.0</ele>
        <time>2020-11-15T09:25:24Z</time>
      </trkpt>
      <trkpt lat="47.706264071" lon="12.584022554">
        <ele>1696.9</ele>
        <time>2020-11-15T09:25:38Z</time>
      </trkpt>
      <trkpt lat="47.706294078" lon="12.583981147">
        <ele>1698.8</ele>
        <time>2020-11-15T09:26:13Z</time>
      </trkpt>
      <trkpt lat="47.706272621" lon="12.584002186">
        <ele>1699.3</ele>
        <time>2020-11-15T09:27:29Z</time>
      </trkpt>
      <trkpt lat="47.706271531" lon="12.583981818">
        <ele>1699.3</ele>
        <time>2020-11-15T09:27:44Z</time>
      </trkpt>
      <trkpt lat="47.706251834" lon="12.583972178">
        <ele>1698.8</ele>
        <time>2020-11-15T09:27:56Z</time>
      </trkpt>
      <trkpt lat="47.706261557" lon="12.583975615">
        <ele>1695.4</ele>
        <time>2020-11-15T09:40:22Z</time>
      </trkpt>
      <trkpt lat="47.706232974" lon="12.584043760">
        <ele>1695.4</ele>
        <time>2020-11-15T10:02:48Z</time>
      </trkpt>
      <trkpt lat="47.706169942" lon="12.584026409">
        <ele>1695.4</ele>
        <time>2020-11-15T10:03:49Z</time>
      </trkpt>
      <trkpt lat="47.706167847" lon="12.584059937">
        <ele>1690.1</ele>
        <time>2020-11-15T10:03:59Z</time>
      </trkpt>
      <trkpt lat="47.706136750" lon="12.584040575">
        <ele>1688.7</ele>
        <time>2020-11-15T10:04:11Z</time>
      </trkpt>
      <trkpt lat="47.706080507" lon="12.583812922">
        <ele>1687.2</ele>
        <time>2020-11-15T10:05:10Z</time>
      </trkpt>
      <trkpt lat="47.706032731" lon="12.583720805">
        <ele>1685.3</ele>
        <time>2020-11-15T10:05:51Z</time>
      </trkpt>
      <trkpt lat="47.705974225" lon="12.583498014">
        <ele>1682.0</ele>
        <time>2020-11-15T10:06:19Z</time>
      </trkpt>
      <trkpt lat="47.705923514" lon="12.583468594">
        <ele>1681.5</ele>
        <time>2020-11-15T10:06:33Z</time>
      </trkpt>
      <trkpt lat="47.705904823" lon="12.583252592">
        <ele>1681.5</ele>
        <time>2020-11-15T10:07:12Z</time>
      </trkpt>
      <trkpt lat="47.705872050" lon="12.583195176">
        <ele>1680.0</ele>
        <time>2020-11-15T10:07:29Z</time>
      </trkpt>
      <trkpt lat="47.705821758" lon="12.583192913">
        <ele>1678.6</ele>
        <time>2020-11-15T10:07:41Z</time>
      </trkpt>
      <trkpt lat="47.705781693" lon="12.583141867">
        <ele>1675.7</ele>
        <time>2020-11-15T10:07:55Z</time>
      </trkpt>
      <trkpt lat="47.705763755" lon="12.583065592">
        <ele>1673.8</ele>
        <time>2020-11-15T10:08:06Z</time>
      </trkpt>
      <trkpt lat="47.705726623" lon="12.582993759">
        <ele>1671.4</ele>
        <time>2020-11-15T10:08:36Z</time>
      </trkpt>
      <trkpt lat="47.705638530" lon="12.582660243">
        <ele>1662.3</ele>
        <time>2020-11-15T10:10:08Z</time>
      </trkpt>
      <trkpt lat="47.705474915" lon="12.582767615">
        <ele>1658.4</ele>
        <time>2020-11-15T10:10:59Z</time>
      </trkpt>
      <trkpt lat="47.705465527" lon="12.582735177">
        <ele>1657.5</ele>
        <time>2020-11-15T10:11:02Z</time>
      </trkpt>
      <trkpt lat="47.705436861" lon="12.582723359">
        <ele>1657.0</ele>
        <time>2020-11-15T10:11:05Z</time>
      </trkpt>
      <trkpt lat="47.705288082" lon="12.583023095">
        <ele>1650.2</ele>
        <time>2020-11-15T10:11:49Z</time>
      </trkpt>
      <trkpt lat="47.705242066" lon="12.583236164">
        <ele>1649.3</ele>
        <time>2020-11-15T10:12:02Z</time>
      </trkpt>
      <trkpt lat="47.705096472" lon="12.583540762">
        <ele>1649.8</ele>
        <time>2020-11-15T10:12:44Z</time>
      </trkpt>
      <trkpt lat="47.705193534" lon="12.583590215">
        <ele>1648.8</ele>
        <time>2020-11-15T10:13:23Z</time>
      </trkpt>
      <trkpt lat="47.705264278" lon="12.583702868">
        <ele>1648.3</ele>
        <time>2020-11-15T10:13:40Z</time>
      </trkpt>
      <trkpt lat="47.705321861" lon="12.583914176">
        <ele>1646.9</ele>
        <time>2020-11-15T10:14:49Z</time>
      </trkpt>
      <trkpt lat="47.705386653" lon="12.583991792">
        <ele>1644.5</ele>
        <time>2020-11-15T10:15:04Z</time>
      </trkpt>
      <trkpt lat="47.705336027" lon="12.584056333">
        <ele>1641.6</ele>
        <time>2020-11-15T10:15:16Z</time>
      </trkpt>
      <trkpt lat="47.705297554" lon="12.584258756">
        <ele>1636.8</ele>
        <time>2020-11-15T10:15:38Z</time>
      </trkpt>
      <trkpt lat="47.705317084" lon="12.584298989">
        <ele>1636.3</ele>
        <time>2020-11-15T10:15:42Z</time>
      </trkpt>
      <trkpt lat="47.705383552" lon="12.584291529">
        <ele>1633.4</ele>
        <time>2020-11-15T10:15:54Z</time>
      </trkpt>
      <trkpt lat="47.705432586" lon="12.584339976">
        <ele>1631.0</ele>
        <time>2020-11-15T10:16:06Z</time>
      </trkpt>
      <trkpt lat="47.705391599" lon="12.584380377">
        <ele>1628.6</ele>
        <time>2020-11-15T10:16:22Z</time>
      </trkpt>
      <trkpt lat="47.705388498" lon="12.584449779">
        <ele>1628.1</ele>
        <time>2020-11-15T10:16:32Z</time>
      </trkpt>
      <trkpt lat="47.705433508" lon="12.584493281">
        <ele>1626.2</ele>
        <time>2020-11-15T10:16:41Z</time>
      </trkpt>
      <trkpt lat="47.705476759" lon="12.584484816">
        <ele>1625.2</ele>
        <time>2020-11-15T10:16:45Z</time>
      </trkpt>
      <trkpt lat="47.705496289" lon="12.584589086">
        <ele>1622.4</ele>
        <time>2020-11-15T10:16:58Z</time>
      </trkpt>
      <trkpt lat="47.705479106" lon="12.584647424">
        <ele>1620.0</ele>
        <time>2020-11-15T10:17:11Z</time>
      </trkpt>
      <trkpt lat="47.705486482" lon="12.584727220">
        <ele>1618.0</ele>
        <time>2020-11-15T10:17:23Z</time>
      </trkpt>
      <trkpt lat="47.705469383" lon="12.584838532">
        <ele>1615.6</ele>
        <time>2020-11-15T10:17:49Z</time>
      </trkpt>
      <trkpt lat="47.705620676" lon="12.584889578">
        <ele>1608.9</ele>
        <time>2020-11-15T10:18:23Z</time>
      </trkpt>
      <trkpt lat="47.705551945" lon="12.584977085">
        <ele>1607.0</ele>
        <time>2020-11-15T10:18:37Z</time>
      </trkpt>
      <trkpt lat="47.705616485" lon="12.585072555">
        <ele>1602.2</ele>
        <time>2020-11-15T10:19:04Z</time>
      </trkpt>
      <trkpt lat="47.705581617" lon="12.585150590">
        <ele>1599.8</ele>
        <time>2020-11-15T10:19:17Z</time>
      </trkpt>
      <trkpt lat="47.705625203" lon="12.585168444">
        <ele>1598.3</ele>
        <time>2020-11-15T10:19:27Z</time>
      </trkpt>
      <trkpt lat="47.705641966" lon="12.585203983">
        <ele>1595.5</ele>
        <time>2020-11-15T10:19:40Z</time>
      </trkpt>
      <trkpt lat="47.705636770" lon="12.585255532">
        <ele>1594.0</ele>
        <time>2020-11-15T10:19:51Z</time>
      </trkpt>
      <trkpt lat="47.705652527" lon="12.585381260">
        <ele>1589.2</ele>
        <time>2020-11-15T10:20:18Z</time>
      </trkpt>
      <trkpt lat="47.705710279" lon="12.585402634">
        <ele>1587.3</ele>
        <time>2020-11-15T10:20:32Z</time>
      </trkpt>
      <trkpt lat="47.705618832" lon="12.585659288">
        <ele>1578.1</ele>
        <time>2020-11-15T10:21:20Z</time>
      </trkpt>
      <trkpt lat="47.705685133" lon="12.585675549">
        <ele>1575.7</ele>
        <time>2020-11-15T10:21:33Z</time>
      </trkpt>
      <trkpt lat="47.705655629" lon="12.585730702">
        <ele>1573.3</ele>
        <time>2020-11-15T10:21:45Z</time>
      </trkpt>
      <trkpt lat="47.705706339" lon="12.585780909">
        <ele>1570.5</ele>
        <time>2020-11-15T10:21:59Z</time>
      </trkpt>
      <trkpt lat="47.705623610" lon="12.585918792">
        <ele>1565.2</ele>
        <time>2020-11-15T10:22:27Z</time>
      </trkpt>
      <trkpt lat="47.705582371" lon="12.586118868">
        <ele>1560.4</ele>
        <time>2020-11-15T10:22:52Z</time>
      </trkpt>
      <trkpt lat="47.705544401" lon="12.586216098">
        <ele>1557.5</ele>
        <time>2020-11-15T10:23:06Z</time>
      </trkpt>
      <trkpt lat="47.705514394" lon="12.586390190">
        <ele>1553.6</ele>
        <time>2020-11-15T10:23:21Z</time>
      </trkpt>
      <trkpt lat="47.705328651" lon="12.586877849">
        <ele>1545.0</ele>
        <time>2020-11-15T10:24:07Z</time>
      </trkpt>
      <trkpt lat="47.705262434" lon="12.587039284">
        <ele>1541.6</ele>
        <time>2020-11-15T10:24:20Z</time>
      </trkpt>
      <trkpt lat="47.705189092" lon="12.587138107">
        <ele>1538.2</ele>
        <time>2020-11-15T10:24:39Z</time>
      </trkpt>
      <trkpt lat="47.705357401" lon="12.587056467">
        <ele>1534.9</ele>
        <time>2020-11-15T10:25:34Z</time>
      </trkpt>
      <trkpt lat="47.705326723" lon="12.587168366">
        <ele>1530.6</ele>
        <time>2020-11-15T10:26:00Z</time>
      </trkpt>
      <trkpt lat="47.705583209" lon="12.587123355">
        <ele>1521.9</ele>
        <time>2020-11-15T10:26:46Z</time>
      </trkpt>
      <trkpt lat="47.705628639" lon="12.587099383">
        <ele>1520.9</ele>
        <time>2020-11-15T10:26:58Z</time>
      </trkpt>
      <trkpt lat="47.705771634" lon="12.587101394">
        <ele>1515.7</ele>
        <time>2020-11-15T10:27:26Z</time>
      </trkpt>
      <trkpt lat="47.705717068" lon="12.587241456">
        <ele>1515.2</ele>
        <time>2020-11-15T10:29:30Z</time>
      </trkpt>
      <trkpt lat="47.705718744" lon="12.587298956">
        <ele>1515.2</ele>
        <time>2020-11-15T10:29:42Z</time>
      </trkpt>
      <trkpt lat="47.705847155" lon="12.587273642">
        <ele>1515.2</ele>
        <time>2020-11-15T10:30:10Z</time>
      </trkpt>
      <trkpt lat="47.705860399" lon="12.587336842">
        <ele>1515.2</ele>
        <time>2020-11-15T10:30:25Z</time>
      </trkpt>
      <trkpt lat="47.705734754" lon="12.587499451">
        <ele>1504.1</ele>
        <time>2020-11-15T10:30:52Z</time>
      </trkpt>
      <trkpt lat="47.705718242" lon="12.587584527">
        <ele>1502.2</ele>
        <time>2020-11-15T10:31:04Z</time>
      </trkpt>
      <trkpt lat="47.705665100" lon="12.587701874">
        <ele>1499.8</ele>
        <time>2020-11-15T10:31:21Z</time>
      </trkpt>
      <trkpt lat="47.705672979" lon="12.587780580">
        <ele>1497.4</ele>
        <time>2020-11-15T10:31:35Z</time>
      </trkpt>
      <trkpt lat="47.705717320" lon="12.587827938">
        <ele>1494.5</ele>
        <time>2020-11-15T10:31:50Z</time>
      </trkpt>
      <trkpt lat="47.705797283" lon="12.587850233">
        <ele>1492.6</ele>
        <time>2020-11-15T10:32:03Z</time>
      </trkpt>
      <trkpt lat="47.705842042" lon="12.587915277">
        <ele>1490.2</ele>
        <time>2020-11-15T10:32:17Z</time>
      </trkpt>
      <trkpt lat="47.705823854" lon="12.588000605">
        <ele>1487.8</ele>
        <time>2020-11-15T10:32:29Z</time>
      </trkpt>
      <trkpt lat="47.705835337" lon="12.588053411">
        <ele>1485.4</ele>
        <time>2020-11-15T10:32:42Z</time>
      </trkpt>
      <trkpt lat="47.705869535" lon="12.588091632">
        <ele>1483.9</ele>
        <time>2020-11-15T10:32:54Z</time>
      </trkpt>
      <trkpt lat="47.705882862" lon="12.588168578">
        <ele>1482.0</ele>
        <time>2020-11-15T10:33:07Z</time>
      </trkpt>
      <trkpt lat="47.706007585" lon="12.588373851">
        <ele>1473.8</ele>
        <time>2020-11-15T10:33:49Z</time>
      </trkpt>
      <trkpt lat="47.706046980" lon="12.588396482">
        <ele>1472.4</ele>
        <time>2020-11-15T10:34:01Z</time>
      </trkpt>
      <trkpt lat="47.706080172" lon="12.588461945">
        <ele>1470.5</ele>
        <time>2020-11-15T10:34:12Z</time>
      </trkpt>
      <trkpt lat="47.706118310" lon="12.588487258">
        <ele>1469.0</ele>
        <time>2020-11-15T10:34:24Z</time>
      </trkpt>
      <trkpt lat="47.706167763" lon="12.588668140">
        <ele>1463.7</ele>
        <time>2020-11-15T10:34:52Z</time>
      </trkpt>
      <trkpt lat="47.706150245" lon="12.588808620">
        <ele>1460.9</ele>
        <time>2020-11-15T10:35:08Z</time>
      </trkpt>
      <trkpt lat="47.706109090" lon="12.588936277">
        <ele>1458.0</ele>
        <time>2020-11-15T10:35:22Z</time>
      </trkpt>
      <trkpt lat="47.706140187" lon="12.589023532">
        <ele>1456.0</ele>
        <time>2020-11-15T10:35:33Z</time>
      </trkpt>
      <trkpt lat="47.706114035" lon="12.589104082">
        <ele>1454.6</ele>
        <time>2020-11-15T10:35:41Z</time>
      </trkpt>
      <trkpt lat="47.706116717" lon="12.589162085">
        <ele>1452.2</ele>
        <time>2020-11-15T10:35:55Z</time>
      </trkpt>
      <trkpt lat="47.706167847" lon="12.589195278">
        <ele>1451.2</ele>
        <time>2020-11-15T10:36:13Z</time>
      </trkpt>
      <trkpt lat="47.706272956" lon="12.589386385">
        <ele>1446.9</ele>
        <time>2020-11-15T10:36:39Z</time>
      </trkpt>
      <trkpt lat="47.706348142" lon="12.589569613">
        <ele>1441.6</ele>
        <time>2020-11-15T10:37:02Z</time>
      </trkpt>
      <trkpt lat="47.706461213" lon="12.589582605">
        <ele>1439.2</ele>
        <time>2020-11-15T10:37:16Z</time>
      </trkpt>
      <trkpt lat="47.706673360" lon="12.589863315">
        <ele>1431.5</ele>
        <time>2020-11-15T10:39:12Z</time>
      </trkpt>
      <trkpt lat="47.706762711" lon="12.589939591">
        <ele>1430.1</ele>
        <time>2020-11-15T10:39:22Z</time>
      </trkpt>
      <trkpt lat="47.706888104" lon="12.589921821">
        <ele>1427.7</ele>
        <time>2020-11-15T10:39:37Z</time>
      </trkpt>
      <trkpt lat="47.706941580" lon="12.590042604">
        <ele>1425.3</ele>
        <time>2020-11-15T10:39:53Z</time>
      </trkpt>
      <trkpt lat="47.706956416" lon="12.590129776">
        <ele>1422.4</ele>
        <time>2020-11-15T10:40:06Z</time>
      </trkpt>
      <trkpt lat="47.707020622" lon="12.590312166">
        <ele>1418.6</ele>
        <time>2020-11-15T10:40:31Z</time>
      </trkpt>
      <trkpt lat="47.707163030" lon="12.590464801">
        <ele>1412.3</ele>
        <time>2020-11-15T10:41:15Z</time>
      </trkpt>
      <trkpt lat="47.707173424" lon="12.590451306">
        <ele>1412.3</ele>
        <time>2020-11-15T10:41:58Z</time>
      </trkpt>
      <trkpt lat="47.707157750" lon="12.590436973">
        <ele>1412.3</ele>
        <time>2020-11-15T10:42:31Z</time>
      </trkpt>
      <trkpt lat="47.707219776" lon="12.590424484">
        <ele>1411.3</ele>
        <time>2020-11-15T10:45:39Z</time>
      </trkpt>
      <trkpt lat="47.707267133" lon="12.590491036">
        <ele>1407.0</ele>
        <time>2020-11-15T10:46:59Z</time>
      </trkpt>
      <trkpt lat="47.707306277" lon="12.590503860">
        <ele>1405.1</ele>
        <time>2020-11-15T10:47:11Z</time>
      </trkpt>
      <trkpt lat="47.707352713" lon="12.590610394">
        <ele>1399.8</ele>
        <time>2020-11-15T10:47:37Z</time>
      </trkpt>
      <trkpt lat="47.707367800" lon="12.590765711">
        <ele>1396.9</ele>
        <time>2020-11-15T10:48:16Z</time>
      </trkpt>
      <trkpt lat="47.707470227" lon="12.590789683">
        <ele>1395.5</ele>
        <time>2020-11-15T10:48:32Z</time>
      </trkpt>
      <trkpt lat="47.707543736" lon="12.590776272">
        <ele>1393.1</ele>
        <time>2020-11-15T10:48:46Z</time>
      </trkpt>
      <trkpt lat="47.707579611" lon="12.590856236">
        <ele>1390.2</ele>
        <time>2020-11-15T10:49:07Z</time>
      </trkpt>
      <trkpt lat="47.707644068" lon="12.590890685">
        <ele>1388.3</ele>
        <time>2020-11-15T10:49:24Z</time>
      </trkpt>
      <trkpt lat="47.707714057" lon="12.591024377">
        <ele>1383.0</ele>
        <time>2020-11-15T10:49:51Z</time>
      </trkpt>
      <trkpt lat="47.707730988" lon="12.591094868">
        <ele>1380.6</ele>
        <time>2020-11-15T10:50:05Z</time>
      </trkpt>
      <trkpt lat="47.707835343" lon="12.591226464">
        <ele>1373.9</ele>
        <time>2020-11-15T10:50:31Z</time>
      </trkpt>
      <trkpt lat="47.707854202" lon="12.591319839">
        <ele>1371.9</ele>
        <time>2020-11-15T10:50:43Z</time>
      </trkpt>
      <trkpt lat="47.708104905" lon="12.591663664">
        <ele>1359.4</ele>
        <time>2020-11-15T10:51:20Z</time>
      </trkpt>
      <trkpt lat="47.708128626" lon="12.591828872">
        <ele>1357.5</ele>
        <time>2020-11-15T10:51:35Z</time>
      </trkpt>
      <trkpt lat="47.708185203" lon="12.591915959">
        <ele>1358.0</ele>
        <time>2020-11-15T10:51:43Z</time>
      </trkpt>
      <trkpt lat="47.708216803" lon="12.592124166">
        <ele>1358.5</ele>
        <time>2020-11-15T10:51:59Z</time>
      </trkpt>
      <trkpt lat="47.708273213" lon="12.592240591">
        <ele>1358.5</ele>
        <time>2020-11-15T10:52:12Z</time>
      </trkpt>
      <trkpt lat="47.708503800" lon="12.592354333">
        <ele>1357.5</ele>
        <time>2020-11-15T10:52:46Z</time>
      </trkpt>
      <trkpt lat="47.708543949" lon="12.592311753">
        <ele>1357.0</ele>
        <time>2020-11-15T10:52:52Z</time>
      </trkpt>
      <trkpt lat="47.708599940" lon="12.592159118">
        <ele>1357.0</ele>
        <time>2020-11-15T10:53:08Z</time>
      </trkpt>
      <trkpt lat="47.708653919" lon="12.592062559">
        <ele>1354.6</ele>
        <time>2020-11-15T10:53:21Z</time>
      </trkpt>
      <trkpt lat="47.708735559" lon="12.591955019">
        <ele>1352.2</ele>
        <time>2020-11-15T10:53:36Z</time>
      </trkpt>
      <trkpt lat="47.708824575" lon="12.591941692">
        <ele>1349.8</ele>
        <time>2020-11-15T10:53:49Z</time>
      </trkpt>
      <trkpt lat="47.708887858" lon="12.591875391">
        <ele>1348.4</ele>
        <time>2020-11-15T10:53:57Z</time>
      </trkpt>
      <trkpt lat="47.708912082" lon="12.591817556">
        <ele>1347.4</ele>
        <time>2020-11-15T10:54:02Z</time>
      </trkpt>
      <trkpt lat="47.708995566" lon="12.591814874">
        <ele>1345.0</ele>
        <time>2020-11-15T10:54:14Z</time>
      </trkpt>
      <trkpt lat="47.709076786" lon="12.591878409">
        <ele>1342.6</ele>
        <time>2020-11-15T10:54:30Z</time>
      </trkpt>
      <trkpt lat="47.709156163" lon="12.591904979">
        <ele>1340.2</ele>
        <time>2020-11-15T10:54:56Z</time>
      </trkpt>
      <trkpt lat="47.709224224" lon="12.591867093">
        <ele>1338.3</ele>
        <time>2020-11-15T10:55:09Z</time>
      </trkpt>
      <trkpt lat="47.709291950" lon="12.591901878">
        <ele>1335.9</ele>
        <time>2020-11-15T10:55:25Z</time>
      </trkpt>
      <trkpt lat="47.709366633" lon="12.591868769">
        <ele>1333.5</ele>
        <time>2020-11-15T10:55:39Z</time>
      </trkpt>
      <trkpt lat="47.709637117" lon="12.591957198">
        <ele>1330.6</ele>
        <time>2020-11-15T10:56:36Z</time>
      </trkpt>
      <trkpt lat="47.709702328" lon="12.592090974">
        <ele>1330.1</ele>
        <time>2020-11-15T10:56:55Z</time>
      </trkpt>
      <trkpt lat="47.709814729" lon="12.592246961">
        <ele>1328.7</ele>
        <time>2020-11-15T10:57:23Z</time>
      </trkpt>
      <trkpt lat="47.709829314" lon="12.592307646">
        <ele>1327.7</ele>
        <time>2020-11-15T10:57:28Z</time>
      </trkpt>
      <trkpt lat="47.709852451" lon="12.592473497">
        <ele>1289.0</ele>
        <time>2020-11-15T10:57:45Z</time>
      </trkpt>
      <trkpt lat="47.709827401" lon="12.592698443">
        <ele>1283.7</ele>
        <time>2020-11-15T10:58:01Z</time>
      </trkpt>
      <trkpt lat="47.709828873" lon="12.592938547">
        <ele>1278.8</ele>
        <time>2020-11-15T10:58:14Z</time>
      </trkpt>
      <trkpt lat="47.709875661" lon="12.593168438">
        <ele>1275.9</ele>
        <time>2020-11-15T10:58:27Z</time>
      </trkpt>
      <trkpt lat="47.710116670" lon="12.593518365">
        <ele>1280.5</ele>
        <time>2020-11-15T10:58:54Z</time>
      </trkpt>
      <trkpt lat="47.710206906" lon="12.594084588">
        <ele>1272.7</ele>
        <time>2020-11-15T10:59:35Z</time>
      </trkpt>
      <trkpt lat="47.710294836" lon="12.594437316">
        <ele>1268.2</ele>
        <time>2020-11-15T11:00:06Z</time>
      </trkpt>
      <trkpt lat="47.710339952" lon="12.594720429">
        <ele>1263.8</ele>
        <time>2020-11-15T11:00:21Z</time>
      </trkpt>
      <trkpt lat="47.710413259" lon="12.594965482">
        <ele>1261.3</ele>
        <time>2020-11-15T11:00:33Z</time>
      </trkpt>
      <trkpt lat="47.710469441" lon="12.595182690">
        <ele>1258.7</ele>
        <time>2020-11-15T11:00:47Z</time>
      </trkpt>
      <trkpt lat="47.710507245" lon="12.595411966">
        <ele>1255.4</ele>
        <time>2020-11-15T11:00:50Z</time>
      </trkpt>
      <trkpt lat="47.710622528" lon="12.595753249">
        <ele>1253.6</ele>
        <time>2020-11-15T11:01:36Z</time>
      </trkpt>
      <trkpt lat="47.710713382" lon="12.596586199">
        <ele>1241.5</ele>
        <time>2020-11-15T11:02:17Z</time>
      </trkpt>
      <trkpt lat="47.710721320" lon="12.596906756">
        <ele>1233.8</ele>
        <time>2020-11-15T11:02:31Z</time>
      </trkpt>
      <trkpt lat="47.710762974" lon="12.597139059">
        <ele>1258.0</ele>
        <time>2020-11-15T11:02:38Z</time>
      </trkpt>
      <trkpt lat="47.710918793" lon="12.597256657">
        <ele>1255.1</ele>
        <time>2020-11-15T11:02:50Z</time>
      </trkpt>
      <trkpt lat="47.711091377" lon="12.597299069">
        <ele>1251.8</ele>
        <time>2020-11-15T11:03:05Z</time>
      </trkpt>
      <trkpt lat="47.711321376" lon="12.597211311">
        <ele>1248.9</ele>
        <time>2020-11-15T11:03:23Z</time>
      </trkpt>
      <trkpt lat="47.711542877" lon="12.597110035">
        <ele>1213.8</ele>
        <time>2020-11-15T11:03:42Z</time>
      </trkpt>
      <trkpt lat="47.711696370" lon="12.597093944">
        <ele>1211.7</ele>
        <time>2020-11-15T11:03:57Z</time>
      </trkpt>
      <trkpt lat="47.711777399" lon="12.597379541">
        <ele>1202.4</ele>
        <time>2020-11-15T11:04:03Z</time>
      </trkpt>
      <trkpt lat="47.711847592" lon="12.597921090">
        <ele>1236.4</ele>
        <time>2020-11-15T11:04:46Z</time>
      </trkpt>
      <trkpt lat="47.711887574" lon="12.598089315">
        <ele>1233.0</ele>
        <time>2020-11-15T11:05:00Z</time>
      </trkpt>
      <trkpt lat="47.711924538" lon="12.598288553">
        <ele>1229.7</ele>
        <time>2020-11-15T11:05:16Z</time>
      </trkpt>
      <trkpt lat="47.712018164" lon="12.598611256">
        <ele>1225.8</ele>
        <time>2020-11-15T11:05:46Z</time>
      </trkpt>
      <trkpt lat="47.712009698" lon="12.599116266">
        <ele>1217.2</ele>
        <time>2020-11-15T11:06:26Z</time>
      </trkpt>
      <trkpt lat="47.712056553" lon="12.599370070">
        <ele>1213.3</ele>
        <time>2020-11-15T11:06:45Z</time>
      </trkpt>
      <trkpt lat="47.712241039" lon="12.600069959">
        <ele>1200.8</ele>
        <time>2020-11-15T11:07:42Z</time>
      </trkpt>
      <trkpt lat="47.712354027" lon="12.600376820">
        <ele>1195.5</ele>
        <time>2020-11-15T11:08:16Z</time>
      </trkpt>
      <trkpt lat="47.712297197" lon="12.600909239">
        <ele>1186.9</ele>
        <time>2020-11-15T11:09:42Z</time>
      </trkpt>
      <trkpt lat="47.712294683" lon="12.601043349">
        <ele>1185.4</ele>
        <time>2020-11-15T11:09:57Z</time>
      </trkpt>
      <trkpt lat="47.712333575" lon="12.601135550">
        <ele>1183.5</ele>
        <time>2020-11-15T11:10:24Z</time>
      </trkpt>
      <trkpt lat="47.712311028" lon="12.601344427">
        <ele>1180.6</ele>
        <time>2020-11-15T11:12:39Z</time>
      </trkpt>
      <trkpt lat="47.712284708" lon="12.601432269">
        <ele>1179.7</ele>
        <time>2020-11-15T11:12:46Z</time>
      </trkpt>
      <trkpt lat="47.712098043" lon="12.601486417">
        <ele>1178.2</ele>
        <time>2020-11-15T11:13:05Z</time>
      </trkpt>
      <trkpt lat="47.711950354" lon="12.601751620">
        <ele>1175.8</ele>
        <time>2020-11-15T11:13:25Z</time>
      </trkpt>
      <trkpt lat="47.711786739" lon="12.601696635">
        <ele>1174.4</ele>
        <time>2020-11-15T11:13:40Z</time>
      </trkpt>
      <trkpt lat="47.711714152" lon="12.601601249">
        <ele>1173.0</ele>
        <time>2020-11-15T11:13:48Z</time>
      </trkpt>
      <trkpt lat="47.711650785" lon="12.601225236">
        <ele>1169.6</ele>
        <time>2020-11-15T11:14:15Z</time>
      </trkpt>
      <trkpt lat="47.711550035" lon="12.601243425">
        <ele>1167.7</ele>
        <time>2020-11-15T11:14:24Z</time>
      </trkpt>
      <trkpt lat="47.711416008" lon="12.601194726">
        <ele>1166.2</ele>
        <time>2020-11-15T11:14:35Z</time>
      </trkpt>
      <trkpt lat="47.711170250" lon="12.601040080">
        <ele>1163.3</ele>
        <time>2020-11-15T11:14:56Z</time>
      </trkpt>
      <trkpt lat="47.710963933" lon="12.601216961">
        <ele>1126.4</ele>
        <time>2020-11-15T11:15:14Z</time>
      </trkpt>
      <trkpt lat="47.710888535" lon="12.601673668">
        <ele>1156.1</ele>
        <time>2020-11-15T11:15:46Z</time>
      </trkpt>
      <trkpt lat="47.710882248" lon="12.601937531">
        <ele>1152.8</ele>
        <time>2020-11-15T11:16:03Z</time>
      </trkpt>
      <trkpt lat="47.710901024" lon="12.602240369">
        <ele>1149.4</ele>
        <time>2020-11-15T11:16:21Z</time>
      </trkpt>
      <trkpt lat="47.710994398" lon="12.602520324">
        <ele>1146.0</ele>
        <time>2020-11-15T11:16:37Z</time>
      </trkpt>
      <trkpt lat="47.711330932" lon="12.602966493">
        <ele>1139.8</ele>
        <time>2020-11-15T11:17:13Z</time>
      </trkpt>
      <trkpt lat="47.711376613" lon="12.603053749">
        <ele>1138.8</ele>
        <time>2020-11-15T11:17:19Z</time>
      </trkpt>
      <trkpt lat="47.711590184" lon="12.603698568">
        <ele>1132.6</ele>
        <time>2020-11-15T11:18:02Z</time>
      </trkpt>
      <trkpt lat="47.711678445" lon="12.603813317">
        <ele>1132.1</ele>
        <time>2020-11-15T11:18:13Z</time>
      </trkpt>
      <trkpt lat="47.711759917" lon="12.603900740">
        <ele>1131.6</ele>
        <time>2020-11-15T11:18:23Z</time>
      </trkpt>
      <trkpt lat="47.711885562" lon="12.603843743">
        <ele>1130.7</ele>
        <time>2020-11-15T11:18:36Z</time>
      </trkpt>
      <trkpt lat="47.711888580" lon="12.603752129">
        <ele>1130.7</ele>
        <time>2020-11-15T11:18:43Z</time>
      </trkpt>
      <trkpt lat="47.711916994" lon="12.603608966">
        <ele>1130.2</ele>
        <time>2020-11-15T11:18:57Z</time>
      </trkpt>
      <trkpt lat="47.711953120" lon="12.603616342">
        <ele>1129.7</ele>
        <time>2020-11-15T11:19:03Z</time>
      </trkpt>
      <trkpt lat="47.712057978" lon="12.603578456">
        <ele>1128.7</ele>
        <time>2020-11-15T11:19:21Z</time>
      </trkpt>
      <trkpt lat="47.712077089" lon="12.603621120">
        <ele>1125.8</ele>
        <time>2020-11-15T11:19:36Z</time>
      </trkpt>
      <trkpt lat="47.712065857" lon="12.603683984">
        <ele>1122.5</ele>
        <time>2020-11-15T11:19:52Z</time>
      </trkpt>
      <trkpt lat="47.712033419" lon="12.603750033">
        <ele>1120.5</ele>
        <time>2020-11-15T11:20:11Z</time>
      </trkpt>
      <trkpt lat="47.712046159" lon="12.603808790">
        <ele>1119.1</ele>
        <time>2020-11-15T11:20:25Z</time>
      </trkpt>
      <trkpt lat="47.712118747" lon="12.603906859">
        <ele>1114.3</ele>
        <time>2020-11-15T11:21:02Z</time>
      </trkpt>
      <trkpt lat="47.712147497" lon="12.603890263">
        <ele>1113.3</ele>
        <time>2020-11-15T11:21:20Z</time>
      </trkpt>
      <trkpt lat="47.712221627" lon="12.603863878">
        <ele>1087.6</ele>
        <time>2020-11-15T11:21:37Z</time>
      </trkpt>
      <trkpt lat="47.712299517" lon="12.603962594">
        <ele>1086.9</ele>
        <time>2020-11-15T11:22:08Z</time>
      </trkpt>
      <trkpt lat="47.712422916" lon="12.604331137">
        <ele>1077.8</ele>
        <time>2020-11-15T11:22:16Z</time>
      </trkpt>
      <trkpt lat="47.712463212" lon="12.604480595">
        <ele>1073.2</ele>
        <time>2020-11-15T11:22:32Z</time>
      </trkpt>
      <trkpt lat="47.712601449" lon="12.604663486">
        <ele>1070.0</ele>
        <time>2020-11-15T11:22:49Z</time>
      </trkpt>
      <trkpt lat="47.712869514" lon="12.604969684">
        <ele>1092.2</ele>
        <time>2020-11-15T11:23:17Z</time>
      </trkpt>
      <trkpt lat="47.713048551" lon="12.605057191">
        <ele>1088.8</ele>
        <time>2020-11-15T11:23:35Z</time>
      </trkpt>
      <trkpt lat="47.713273857" lon="12.605192475">
        <ele>1085.0</ele>
        <time>2020-11-15T11:23:57Z</time>
      </trkpt>
      <trkpt lat="47.713310570" lon="12.605328094">
        <ele>1082.1</ele>
        <time>2020-11-15T11:24:13Z</time>
      </trkpt>
      <trkpt lat="47.713250890" lon="12.605389198">
        <ele>1079.7</ele>
        <time>2020-11-15T11:24:30Z</time>
      </trkpt>
      <trkpt lat="47.712651524" lon="12.605360325">
        <ele>1039.7</ele>
        <time>2020-11-15T11:25:31Z</time>
      </trkpt>
      <trkpt lat="47.712551490" lon="12.605393418">
        <ele>1036.0</ele>
        <time>2020-11-15T11:25:48Z</time>
      </trkpt>
      <trkpt lat="47.712451457" lon="12.605426512">
        <ele>1032.4</ele>
        <time>2020-11-15T11:26:08Z</time>
      </trkpt>
      <trkpt lat="47.712457925" lon="12.605506964">
        <ele>1029.6</ele>
        <time>2020-11-15T11:29:02Z</time>
      </trkpt>
      <trkpt lat="47.712517306" lon="12.605673596">
        <ele>1063.8</ele>
        <time>2020-11-15T11:29:59Z</time>
      </trkpt>
      <trkpt lat="47.712828862" lon="12.605855316">
        <ele>1056.2</ele>
        <time>2020-11-15T11:31:41Z</time>
      </trkpt>
      <trkpt lat="47.712903796" lon="12.605932932">
        <ele>1045.6</ele>
        <time>2020-11-15T11:32:15Z</time>
      </trkpt>
      <trkpt lat="47.712957272" lon="12.606091350">
        <ele>1045.6</ele>
        <time>2020-11-15T11:32:50Z</time>
      </trkpt>
      <trkpt lat="47.713200045" lon="12.606518299">
        <ele>1012.8</ele>
        <time>2020-11-15T11:33:25Z</time>
      </trkpt>
      <trkpt lat="47.713297829" lon="12.606873549">
        <ele>1034.0</ele>
        <time>2020-11-15T11:33:39Z</time>
      </trkpt>
      <trkpt lat="47.713399229" lon="12.607052104">
        <ele>1004.7</ele>
        <time>2020-11-15T11:34:00Z</time>
      </trkpt>
      <trkpt lat="47.713497318" lon="12.607297339">
        <ele>1025.9</ele>
        <time>2020-11-15T11:34:16Z</time>
      </trkpt>
      <trkpt lat="47.713611564" lon="12.607372943">
        <ele>1023.0</ele>
        <time>2020-11-15T11:34:38Z</time>
      </trkpt>
      <trkpt lat="47.713633440" lon="12.607432622">
        <ele>1021.5</ele>
        <time>2020-11-15T11:34:53Z</time>
      </trkpt>
      <trkpt lat="47.713667639" lon="12.607641751">
        <ele>1018.2</ele>
        <time>2020-11-15T11:35:14Z</time>
      </trkpt>
      <trkpt lat="47.713711378" lon="12.607713731">
        <ele>995.0</ele>
        <time>2020-11-15T11:35:31Z</time>
      </trkpt>
      <trkpt lat="47.713725568" lon="12.607834723">
        <ele>992.3</ele>
        <time>2020-11-15T11:35:47Z</time>
      </trkpt>
      <trkpt lat="47.713735951" lon="12.608080879">
        <ele>1011.9</ele>
        <time>2020-11-15T11:36:31Z</time>
      </trkpt>
      <trkpt lat="47.713719690" lon="12.608180288">
        <ele>1010.5</ele>
        <time>2020-11-15T11:36:39Z</time>
      </trkpt>
      <trkpt lat="47.713715697" lon="12.608434095">
        <ele>979.7</ele>
        <time>2020-11-15T11:36:58Z</time>
      </trkpt>
      <trkpt lat="47.713680379" lon="12.608698344">
        <ele>974.6</ele>
        <time>2020-11-15T11:37:16Z</time>
      </trkpt>
      <trkpt lat="47.713641739" lon="12.608846566">
        <ele>1001.8</ele>
        <time>2020-11-15T11:37:29Z</time>
      </trkpt>
      <trkpt lat="47.713622628" lon="12.609283011">
        <ele>995.6</ele>
        <time>2020-11-15T11:38:02Z</time>
      </trkpt>
      <trkpt lat="47.713653808" lon="12.609503875">
        <ele>992.7</ele>
        <time>2020-11-15T11:38:17Z</time>
      </trkpt>
      <trkpt lat="47.713665878" lon="12.609745776">
        <ele>989.8</ele>
        <time>2020-11-15T11:38:31Z</time>
      </trkpt>
      <trkpt lat="47.713735951" lon="12.609948367">
        <ele>986.9</ele>
        <time>2020-11-15T11:38:47Z</time>
      </trkpt>
      <trkpt lat="47.713763192" lon="12.609977033">
        <ele>986.0</ele>
        <time>2020-11-15T11:38:50Z</time>
      </trkpt>
      <trkpt lat="47.713919515" lon="12.609980805">
        <ele>983.1</ele>
        <time>2020-11-15T11:39:05Z</time>
      </trkpt>
      <trkpt lat="47.713969136" lon="12.609962448">
        <ele>982.1</ele>
        <time>2020-11-15T11:39:10Z</time>
      </trkpt>
      <trkpt lat="47.714109113" lon="12.609840576">
        <ele>979.2</ele>
        <time>2020-11-15T11:39:27Z</time>
      </trkpt>
      <trkpt lat="47.714247331" lon="12.609755499">
        <ele>976.4</ele>
        <time>2020-11-15T11:39:42Z</time>
      </trkpt>
      <trkpt lat="47.714263676" lon="12.609884581">
        <ele>973.5</ele>
        <time>2020-11-15T11:40:02Z</time>
      </trkpt>
      <trkpt lat="47.714197626" lon="12.610036964">
        <ele>970.1</ele>
        <time>2020-11-15T11:40:19Z</time>
      </trkpt>
      <trkpt lat="47.714163669" lon="12.610211901">
        <ele>942.0</ele>
        <time>2020-11-15T11:40:41Z</time>
      </trkpt>
      <trkpt lat="47.713914267" lon="12.610701366">
        <ele>930.6</ele>
        <time>2020-11-15T11:41:06Z</time>
      </trkpt>
      <trkpt lat="47.713841767" lon="12.611003047">
        <ele>925.7</ele>
        <time>2020-11-15T11:41:36Z</time>
      </trkpt>
      <trkpt lat="47.713694293" lon="12.611196600">
        <ele>953.3</ele>
        <time>2020-11-15T11:41:52Z</time>
      </trkpt>
      <trkpt lat="47.713881073" lon="12.612325889">
        <ele>920.1</ele>
        <time>2020-11-15T11:42:35Z</time>
      </trkpt>
      <trkpt lat="47.713820484" lon="12.612535049">
        <ele>912.9</ele>
        <time>2020-11-15T11:42:59Z</time>
      </trkpt>
      <trkpt lat="47.713761992" lon="12.612677681">
        <ele>906.5</ele>
        <time>2020-11-15T11:43:23Z</time>
      </trkpt>
      <trkpt lat="47.713566972" lon="12.613288555">
        <ele>924.0</ele>
        <time>2020-11-15T11:44:02Z</time>
      </trkpt>
      <trkpt lat="47.713557500" lon="12.613492738">
        <ele>920.6</ele>
        <time>2020-11-15T11:44:14Z</time>
      </trkpt>
      <trkpt lat="47.713514417" lon="12.613697005">
        <ele>917.7</ele>
        <time>2020-11-15T11:44:27Z</time>
      </trkpt>
      <trkpt lat="47.713423809" lon="12.614054075">
        <ele>912.4</ele>
        <time>2020-11-15T11:44:52Z</time>
      </trkpt>
      <trkpt lat="47.713428084" lon="12.614230346">
        <ele>910.0</ele>
        <time>2020-11-15T11:45:03Z</time>
      </trkpt>
      <trkpt lat="47.713380139" lon="12.614467973">
        <ele>906.2</ele>
        <time>2020-11-15T11:45:18Z</time>
      </trkpt>
      <trkpt lat="47.713150475" lon="12.615464078">
        <ele>894.2</ele>
        <time>2020-11-15T11:46:18Z</time>
      </trkpt>
      <trkpt lat="47.713075457" lon="12.616036059">
        <ele>888.4</ele>
        <time>2020-11-15T11:46:47Z</time>
      </trkpt>
      <trkpt lat="47.712991973" lon="12.616454735">
        <ele>883.6</ele>
        <time>2020-11-15T11:47:18Z</time>
      </trkpt>
      <trkpt lat="47.712974455" lon="12.616674509">
        <ele>880.2</ele>
        <time>2020-11-15T11:47:31Z</time>
      </trkpt>
      <trkpt lat="47.713000523" lon="12.616896881">
        <ele>877.3</ele>
        <time>2020-11-15T11:47:45Z</time>
      </trkpt>
      <trkpt lat="47.713098172" lon="12.617236516">
        <ele>873.0</ele>
        <time>2020-11-15T11:48:09Z</time>
      </trkpt>
      <trkpt lat="47.713148154" lon="12.617302238">
        <ele>844.9</ele>
        <time>2020-11-15T11:48:43Z</time>
      </trkpt>
      <trkpt lat="47.713300128" lon="12.617619461">
        <ele>840.6</ele>
        <time>2020-11-15T11:48:59Z</time>
      </trkpt>
      <trkpt lat="47.713301769" lon="12.617624933">
        <ele>863.4</ele>
        <time>2020-11-15T11:49:12Z</time>
      </trkpt>
      <trkpt lat="47.713187332" lon="12.617771657">
        <ele>832.6</ele>
        <time>2020-11-15T11:49:46Z</time>
      </trkpt>
      <trkpt lat="47.712956518" lon="12.617976554">
        <ele>853.8</ele>
        <time>2020-11-15T11:50:01Z</time>
      </trkpt>
      <trkpt lat="47.712716209" lon="12.618180066">
        <ele>848.0</ele>
        <time>2020-11-15T11:50:30Z</time>
      </trkpt>
      <trkpt lat="47.712640688" lon="12.618295066">
        <ele>845.6</ele>
        <time>2020-11-15T11:50:40Z</time>
      </trkpt>
      <trkpt lat="47.712574890" lon="12.618427081">
        <ele>843.7</ele>
        <time>2020-11-15T11:50:49Z</time>
      </trkpt>
      <trkpt lat="47.712412365" lon="12.619111380">
        <ele>835.0</ele>
        <time>2020-11-15T11:51:35Z</time>
      </trkpt>
      <trkpt lat="47.712499537" lon="12.619524775">
        <ele>831.7</ele>
        <time>2020-11-15T11:51:58Z</time>
      </trkpt>
      <trkpt lat="47.712742528" lon="12.620204799">
        <ele>824.0</ele>
        <time>2020-11-15T11:52:45Z</time>
      </trkpt>
      <trkpt lat="47.712809080" lon="12.620432871">
        <ele>820.6</ele>
        <time>2020-11-15T11:52:59Z</time>
      </trkpt>
      <trkpt lat="47.712837243" lon="12.620877028">
        <ele>814.4</ele>
        <time>2020-11-15T11:53:25Z</time>
      </trkpt>
      <trkpt lat="47.712799944" lon="12.621169640">
        <ele>811.0</ele>
        <time>2020-11-15T11:53:41Z</time>
      </trkpt>
      <trkpt lat="47.712771237" lon="12.621543098">
        <ele>772.6</ele>
        <time>2020-11-15T11:53:49Z</time>
      </trkpt>
      <trkpt lat="47.712714416" lon="12.621632496">
        <ele>770.0</ele>
        <time>2020-11-15T11:54:06Z</time>
      </trkpt>
      <trkpt lat="47.712596348" lon="12.621634416">
        <ele>804.8</ele>
        <time>2020-11-15T11:54:10Z</time>
      </trkpt>
      <trkpt lat="47.712421752" lon="12.621593848">
        <ele>801.4</ele>
        <time>2020-11-15T11:54:27Z</time>
      </trkpt>
      <trkpt lat="47.712339793" lon="12.621526500">
        <ele>762.1</ele>
        <time>2020-11-15T11:54:35Z</time>
      </trkpt>
      <trkpt lat="47.712198641" lon="12.621436702">
        <ele>760.5</ele>
        <time>2020-11-15T11:54:42Z</time>
      </trkpt>
      <trkpt lat="47.712022103" lon="12.621309282">
        <ele>795.1</ele>
        <time>2020-11-15T11:55:01Z</time>
      </trkpt>
      <trkpt lat="47.711893441" lon="12.621275587">
        <ele>794.2</ele>
        <time>2020-11-15T11:55:18Z</time>
      </trkpt>
      <trkpt lat="47.711789925" lon="12.621207777">
        <ele>793.7</ele>
        <time>2020-11-15T11:55:33Z</time>
      </trkpt>
      <trkpt lat="47.711602002" lon="12.621175675">
        <ele>792.3</ele>
        <time>2020-11-15T11:56:12Z</time>
      </trkpt>
      <trkpt lat="47.711517932" lon="12.621325795">
        <ele>791.8</ele>
        <time>2020-11-15T11:57:27Z</time>
      </trkpt>
      <trkpt lat="47.711349037" lon="12.621722678">
        <ele>789.4</ele>
        <time>2020-11-15T11:57:59Z</time>
      </trkpt>
      <trkpt lat="47.711362448" lon="12.621778837">
        <ele>789.4</ele>
        <time>2020-11-15T11:58:03Z</time>
      </trkpt>
      <trkpt lat="47.711467557" lon="12.621902470">
        <ele>787.9</ele>
        <time>2020-11-15T11:58:18Z</time>
      </trkpt>
      <trkpt lat="47.711479543" lon="12.622003723">
        <ele>786.5</ele>
        <time>2020-11-15T11:58:31Z</time>
      </trkpt>
      <trkpt lat="47.711503934" lon="12.621964579">
        <ele>786.0</ele>
        <time>2020-11-15T11:59:20Z</time>
      </trkpt>
    </trkseg>
  </trk>
</gpx>
